<?xml version="1.0" encoding="utf-8"?>
<gpx xmlns:xsi="http://www.w3.org/2001/XMLSchema-instance" xmlns:xsd="http://www.w3.org/2001/XMLSchema" version="1.1" creator="Shapelink.com" xmlns="http://www.topografix.com/GPX/1/1" xmlns:gpxtpx="http://www.garmin.com/xmlschemas/TrackPointExtension/v1">
  <metadata>
    <name>Gåing 1.23 km, 2013-03-06</name>
    <desc></desc>
    <author><name>Mikael Blom</name></author> 
    <time>2013-03-06T18:50:21Z</time>
  </metadata>
  <trk>
    <name>Gåing 1.23 km, 2013-03-06</name>
    <trkseg>
      <trkpt lat="59.9712814" lon="17.7513213">
        <ele>31.8607</ele>
        <time>2013-03-06T18:50:21Z</time>
      </trkpt>
      <trkpt lat="59.9712892" lon="17.7513049">
        <ele>30.8995</ele>
        <time>2013-03-06T18:50:22Z</time>
      </trkpt>
      <trkpt lat="59.971299" lon="17.7512885">
        <ele>30.4188</ele>
        <time>2013-03-06T18:50:23Z</time>
      </trkpt>
      <trkpt lat="59.9713104" lon="17.7512757">
        <ele>30.4188</ele>
        <time>2013-03-06T18:50:24Z</time>
      </trkpt>
      <trkpt lat="59.9713213" lon="17.7512607">
        <ele>29.9381</ele>
        <time>2013-03-06T18:50:25Z</time>
      </trkpt>
      <trkpt lat="59.9713333" lon="17.7512438">
        <ele>29.9381</ele>
        <time>2013-03-06T18:50:26Z</time>
      </trkpt>
      <trkpt lat="59.9713475" lon="17.7512284">
        <ele>30.4188</ele>
        <time>2013-03-06T18:50:27Z</time>
      </trkpt>
      <trkpt lat="59.9713584" lon="17.7512132">
        <ele>29.9381</ele>
        <time>2013-03-06T18:50:28Z</time>
      </trkpt>
      <trkpt lat="59.971372" lon="17.7511964">
        <ele>30.4188</ele>
        <time>2013-03-06T18:50:29Z</time>
      </trkpt>
      <trkpt lat="59.971383" lon="17.7511763">
        <ele>30.4188</ele>
        <time>2013-03-06T18:50:30Z</time>
      </trkpt>
      <trkpt lat="59.9713975" lon="17.7511597">
        <ele>30.8995</ele>
        <time>2013-03-06T18:50:31Z</time>
      </trkpt>
      <trkpt lat="59.971411" lon="17.7511447">
        <ele>31.3801</ele>
        <time>2013-03-06T18:50:32Z</time>
      </trkpt>
      <trkpt lat="59.9714264" lon="17.7511311">
        <ele>31.8607</ele>
        <time>2013-03-06T18:50:33Z</time>
      </trkpt>
      <trkpt lat="59.9714416" lon="17.7511208">
        <ele>32.3416</ele>
        <time>2013-03-06T18:50:34Z</time>
      </trkpt>
      <trkpt lat="59.9714546" lon="17.75111">
        <ele>31.8607</ele>
        <time>2013-03-06T18:50:35Z</time>
      </trkpt>
      <trkpt lat="59.9714669" lon="17.751096">
        <ele>31.8607</ele>
        <time>2013-03-06T18:50:36Z</time>
      </trkpt>
      <trkpt lat="59.9714793" lon="17.7510783">
        <ele>32.3416</ele>
        <time>2013-03-06T18:50:37Z</time>
      </trkpt>
      <trkpt lat="59.9714919" lon="17.751057">
        <ele>32.3416</ele>
        <time>2013-03-06T18:50:38Z</time>
      </trkpt>
      <trkpt lat="59.9715048" lon="17.7510387">
        <ele>31.8607</ele>
        <time>2013-03-06T18:50:39Z</time>
      </trkpt>
      <trkpt lat="59.9715187" lon="17.7510198">
        <ele>31.8607</ele>
        <time>2013-03-06T18:50:40Z</time>
      </trkpt>
      <trkpt lat="59.9715319" lon="17.7510038">
        <ele>31.3801</ele>
        <time>2013-03-06T18:50:41Z</time>
      </trkpt>
      <trkpt lat="59.9715451" lon="17.7509883">
        <ele>31.3801</ele>
        <time>2013-03-06T18:50:42Z</time>
      </trkpt>
      <trkpt lat="59.9715555" lon="17.7509724">
        <ele>30.8995</ele>
        <time>2013-03-06T18:50:43Z</time>
      </trkpt>
      <trkpt lat="59.9715663" lon="17.7509573">
        <ele>29.9381</ele>
        <time>2013-03-06T18:50:44Z</time>
      </trkpt>
      <trkpt lat="59.9715788" lon="17.7509391">
        <ele>29.9381</ele>
        <time>2013-03-06T18:50:45Z</time>
      </trkpt>
      <trkpt lat="59.9715903" lon="17.7509172">
        <ele>29.9381</ele>
        <time>2013-03-06T18:50:46Z</time>
      </trkpt>
      <trkpt lat="59.9716008" lon="17.750894">
        <ele>29.9381</ele>
        <time>2013-03-06T18:50:47Z</time>
      </trkpt>
      <trkpt lat="59.9716104" lon="17.7508767">
        <ele>29.4575</ele>
        <time>2013-03-06T18:50:48Z</time>
      </trkpt>
      <trkpt lat="59.9716219" lon="17.7508604">
        <ele>29.9381</ele>
        <time>2013-03-06T18:50:49Z</time>
      </trkpt>
      <trkpt lat="59.9716337" lon="17.7508441">
        <ele>29.4575</ele>
        <time>2013-03-06T18:50:50Z</time>
      </trkpt>
      <trkpt lat="59.971646" lon="17.7508268">
        <ele>29.9381</ele>
        <time>2013-03-06T18:50:51Z</time>
      </trkpt>
      <trkpt lat="59.9716595" lon="17.7508117">
        <ele>29.9381</ele>
        <time>2013-03-06T18:50:52Z</time>
      </trkpt>
      <trkpt lat="59.971673" lon="17.7507961">
        <ele>29.9381</ele>
        <time>2013-03-06T18:50:53Z</time>
      </trkpt>
      <trkpt lat="59.9716855" lon="17.7507786">
        <ele>29.9381</ele>
        <time>2013-03-06T18:50:54Z</time>
      </trkpt>
      <trkpt lat="59.9716977" lon="17.750763">
        <ele>30.4188</ele>
        <time>2013-03-06T18:50:55Z</time>
      </trkpt>
      <trkpt lat="59.9717099" lon="17.7507462">
        <ele>29.9381</ele>
        <time>2013-03-06T18:50:56Z</time>
      </trkpt>
      <trkpt lat="59.9717249" lon="17.7507278">
        <ele>30.4188</ele>
        <time>2013-03-06T18:50:57Z</time>
      </trkpt>
      <trkpt lat="59.9717398" lon="17.7507094">
        <ele>30.4188</ele>
        <time>2013-03-06T18:50:58Z</time>
      </trkpt>
      <trkpt lat="59.9717539" lon="17.7506902">
        <ele>30.8995</ele>
        <time>2013-03-06T18:50:59Z</time>
      </trkpt>
      <trkpt lat="59.9717673" lon="17.7506731">
        <ele>30.8995</ele>
        <time>2013-03-06T18:51:00Z</time>
      </trkpt>
      <trkpt lat="59.9717803" lon="17.7506563">
        <ele>30.8995</ele>
        <time>2013-03-06T18:51:01Z</time>
      </trkpt>
      <trkpt lat="59.971792" lon="17.7506376">
        <ele>30.4188</ele>
        <time>2013-03-06T18:51:02Z</time>
      </trkpt>
      <trkpt lat="59.9718049" lon="17.7506193">
        <ele>30.4188</ele>
        <time>2013-03-06T18:51:03Z</time>
      </trkpt>
      <trkpt lat="59.971815" lon="17.7505992">
        <ele>30.4188</ele>
        <time>2013-03-06T18:51:04Z</time>
      </trkpt>
      <trkpt lat="59.9718202" lon="17.7505661">
        <ele>29.4575</ele>
        <time>2013-03-06T18:51:05Z</time>
      </trkpt>
      <trkpt lat="59.9718284" lon="17.7505402">
        <ele>28.9769</ele>
        <time>2013-03-06T18:51:06Z</time>
      </trkpt>
      <trkpt lat="59.9718388" lon="17.7505216">
        <ele>28.9769</ele>
        <time>2013-03-06T18:51:07Z</time>
      </trkpt>
      <trkpt lat="59.971849" lon="17.7505064">
        <ele>28.9769</ele>
        <time>2013-03-06T18:51:08Z</time>
      </trkpt>
      <trkpt lat="59.9718579" lon="17.750489">
        <ele>28.4962</ele>
        <time>2013-03-06T18:51:09Z</time>
      </trkpt>
      <trkpt lat="59.9718681" lon="17.7504693">
        <ele>29.4575</ele>
        <time>2013-03-06T18:51:10Z</time>
      </trkpt>
      <trkpt lat="59.9718772" lon="17.750448">
        <ele>29.4575</ele>
        <time>2013-03-06T18:51:11Z</time>
      </trkpt>
      <trkpt lat="59.9718871" lon="17.7504255">
        <ele>29.9381</ele>
        <time>2013-03-06T18:51:12Z</time>
      </trkpt>
      <trkpt lat="59.9718979" lon="17.7504038">
        <ele>29.4575</ele>
        <time>2013-03-06T18:51:13Z</time>
      </trkpt>
      <trkpt lat="59.9719099" lon="17.7503836">
        <ele>28.9769</ele>
        <time>2013-03-06T18:51:14Z</time>
      </trkpt>
      <trkpt lat="59.971922" lon="17.7503651">
        <ele>28.9769</ele>
        <time>2013-03-06T18:51:15Z</time>
      </trkpt>
      <trkpt lat="59.9719332" lon="17.7503439">
        <ele>28.4962</ele>
        <time>2013-03-06T18:51:16Z</time>
      </trkpt>
      <trkpt lat="59.9719439" lon="17.7503235">
        <ele>28.0155</ele>
        <time>2013-03-06T18:51:17Z</time>
      </trkpt>
      <trkpt lat="59.9719549" lon="17.7503049">
        <ele>27.5349</ele>
        <time>2013-03-06T18:51:18Z</time>
      </trkpt>
      <trkpt lat="59.9719678" lon="17.7502883">
        <ele>27.5349</ele>
        <time>2013-03-06T18:51:19Z</time>
      </trkpt>
      <trkpt lat="59.9719786" lon="17.7502692">
        <ele>27.0543</ele>
        <time>2013-03-06T18:51:20Z</time>
      </trkpt>
      <trkpt lat="59.9719883" lon="17.7502471">
        <ele>27.0543</ele>
        <time>2013-03-06T18:51:21Z</time>
      </trkpt>
      <trkpt lat="59.9719997" lon="17.7502271">
        <ele>27.5349</ele>
        <time>2013-03-06T18:51:22Z</time>
      </trkpt>
      <trkpt lat="59.9720097" lon="17.7502046">
        <ele>27.5349</ele>
        <time>2013-03-06T18:51:23Z</time>
      </trkpt>
      <trkpt lat="59.9720191" lon="17.7501796">
        <ele>27.5349</ele>
        <time>2013-03-06T18:51:24Z</time>
      </trkpt>
      <trkpt lat="59.972029" lon="17.7501548">
        <ele>28.0155</ele>
        <time>2013-03-06T18:51:25Z</time>
      </trkpt>
      <trkpt lat="59.9720386" lon="17.7501293">
        <ele>28.0155</ele>
        <time>2013-03-06T18:51:26Z</time>
      </trkpt>
      <trkpt lat="59.9720491" lon="17.750109">
        <ele>28.0155</ele>
        <time>2013-03-06T18:51:27Z</time>
      </trkpt>
      <trkpt lat="59.97206" lon="17.7500879">
        <ele>28.0155</ele>
        <time>2013-03-06T18:51:28Z</time>
      </trkpt>
      <trkpt lat="59.9720707" lon="17.7500664">
        <ele>28.4962</ele>
        <time>2013-03-06T18:51:29Z</time>
      </trkpt>
      <trkpt lat="59.9720795" lon="17.7500387">
        <ele>28.4962</ele>
        <time>2013-03-06T18:51:30Z</time>
      </trkpt>
      <trkpt lat="59.9720888" lon="17.7500088">
        <ele>28.4962</ele>
        <time>2013-03-06T18:51:31Z</time>
      </trkpt>
      <trkpt lat="59.9720981" lon="17.7499812">
        <ele>28.4962</ele>
        <time>2013-03-06T18:51:32Z</time>
      </trkpt>
      <trkpt lat="59.9721073" lon="17.7499521">
        <ele>28.9769</ele>
        <time>2013-03-06T18:51:33Z</time>
      </trkpt>
      <trkpt lat="59.97212" lon="17.7499355">
        <ele>28.9769</ele>
        <time>2013-03-06T18:51:34Z</time>
      </trkpt>
      <trkpt lat="59.9721289" lon="17.7499134">
        <ele>29.4575</ele>
        <time>2013-03-06T18:51:35Z</time>
      </trkpt>
      <trkpt lat="59.9721377" lon="17.7498869">
        <ele>29.4575</ele>
        <time>2013-03-06T18:51:36Z</time>
      </trkpt>
      <trkpt lat="59.9721496" lon="17.7498637">
        <ele>30.4188</ele>
        <time>2013-03-06T18:51:37Z</time>
      </trkpt>
      <trkpt lat="59.9721564" lon="17.7498295">
        <ele>30.8995</ele>
        <time>2013-03-06T18:51:38Z</time>
      </trkpt>
      <trkpt lat="59.9721636" lon="17.7498026">
        <ele>31.3801</ele>
        <time>2013-03-06T18:51:39Z</time>
      </trkpt>
      <trkpt lat="59.9721727" lon="17.749778">
        <ele>31.3801</ele>
        <time>2013-03-06T18:51:40Z</time>
      </trkpt>
      <trkpt lat="59.9721822" lon="17.7497502">
        <ele>32.3416</ele>
        <time>2013-03-06T18:51:41Z</time>
      </trkpt>
      <trkpt lat="59.9721929" lon="17.7497238">
        <ele>32.8223</ele>
        <time>2013-03-06T18:51:42Z</time>
      </trkpt>
      <trkpt lat="59.9721988" lon="17.7496962">
        <ele>32.8223</ele>
        <time>2013-03-06T18:51:43Z</time>
      </trkpt>
      <trkpt lat="59.972209" lon="17.7496715">
        <ele>33.3029</ele>
        <time>2013-03-06T18:51:44Z</time>
      </trkpt>
      <trkpt lat="59.972219" lon="17.7496513">
        <ele>33.3029</ele>
        <time>2013-03-06T18:51:45Z</time>
      </trkpt>
      <trkpt lat="59.9722287" lon="17.7496285">
        <ele>33.7834</ele>
        <time>2013-03-06T18:51:46Z</time>
      </trkpt>
      <trkpt lat="59.9722361" lon="17.7496047">
        <ele>33.7834</ele>
        <time>2013-03-06T18:51:47Z</time>
      </trkpt>
      <trkpt lat="59.9722484" lon="17.749584">
        <ele>35.2255</ele>
        <time>2013-03-06T18:51:48Z</time>
      </trkpt>
      <trkpt lat="59.9722618" lon="17.749557">
        <ele>35.7061</ele>
        <time>2013-03-06T18:51:49Z</time>
      </trkpt>
      <trkpt lat="59.9722729" lon="17.7495233">
        <ele>36.1868</ele>
        <time>2013-03-06T18:51:50Z</time>
      </trkpt>
      <trkpt lat="59.9722833" lon="17.7494921">
        <ele>36.6675</ele>
        <time>2013-03-06T18:51:51Z</time>
      </trkpt>
      <trkpt lat="59.9722919" lon="17.7494636">
        <ele>37.1481</ele>
        <time>2013-03-06T18:51:52Z</time>
      </trkpt>
      <trkpt lat="59.9723024" lon="17.7494375">
        <ele>37.6287</ele>
        <time>2013-03-06T18:51:53Z</time>
      </trkpt>
      <trkpt lat="59.9723117" lon="17.7494084">
        <ele>39.0707</ele>
        <time>2013-03-06T18:51:54Z</time>
      </trkpt>
      <trkpt lat="59.9723206" lon="17.7493849">
        <ele>39.5513</ele>
        <time>2013-03-06T18:51:55Z</time>
      </trkpt>
      <trkpt lat="59.9723314" lon="17.7493601">
        <ele>40.0321</ele>
        <time>2013-03-06T18:51:56Z</time>
      </trkpt>
      <trkpt lat="59.9723428" lon="17.7493337">
        <ele>40.9934</ele>
        <time>2013-03-06T18:51:57Z</time>
      </trkpt>
      <trkpt lat="59.9723507" lon="17.7493123">
        <ele>40.9934</ele>
        <time>2013-03-06T18:51:58Z</time>
      </trkpt>
      <trkpt lat="59.972359" lon="17.7492929">
        <ele>40.5128</ele>
        <time>2013-03-06T18:51:59Z</time>
      </trkpt>
      <trkpt lat="59.9723676" lon="17.7492742">
        <ele>40.0321</ele>
        <time>2013-03-06T18:52:00Z</time>
      </trkpt>
      <trkpt lat="59.972373" lon="17.749254">
        <ele>39.0707</ele>
        <time>2013-03-06T18:52:01Z</time>
      </trkpt>
      <trkpt lat="59.9723821" lon="17.749236">
        <ele>39.0707</ele>
        <time>2013-03-06T18:52:02Z</time>
      </trkpt>
      <trkpt lat="59.9723882" lon="17.7492067">
        <ele>39.0707</ele>
        <time>2013-03-06T18:52:03Z</time>
      </trkpt>
      <trkpt lat="59.9723982" lon="17.7491898">
        <ele>38.5901</ele>
        <time>2013-03-06T18:52:04Z</time>
      </trkpt>
      <trkpt lat="59.9724045" lon="17.7491654">
        <ele>39.5513</ele>
        <time>2013-03-06T18:52:05Z</time>
      </trkpt>
      <trkpt lat="59.9724086" lon="17.74914">
        <ele>40.0321</ele>
        <time>2013-03-06T18:52:06Z</time>
      </trkpt>
      <trkpt lat="59.9724173" lon="17.7491162">
        <ele>40.5128</ele>
        <time>2013-03-06T18:52:07Z</time>
      </trkpt>
      <trkpt lat="59.9724261" lon="17.7490912">
        <ele>40.5128</ele>
        <time>2013-03-06T18:52:08Z</time>
      </trkpt>
      <trkpt lat="59.9724365" lon="17.7490686">
        <ele>40.5128</ele>
        <time>2013-03-06T18:52:09Z</time>
      </trkpt>
      <trkpt lat="59.972447" lon="17.7490421">
        <ele>40.5128</ele>
        <time>2013-03-06T18:52:10Z</time>
      </trkpt>
      <trkpt lat="59.97246" lon="17.7490153">
        <ele>41.474</ele>
        <time>2013-03-06T18:52:11Z</time>
      </trkpt>
      <trkpt lat="59.9724703" lon="17.7489872">
        <ele>41.9547</ele>
        <time>2013-03-06T18:52:12Z</time>
      </trkpt>
      <trkpt lat="59.9724807" lon="17.7489614">
        <ele>42.4354</ele>
        <time>2013-03-06T18:52:13Z</time>
      </trkpt>
      <trkpt lat="59.9724915" lon="17.748937">
        <ele>41.9547</ele>
        <time>2013-03-06T18:52:14Z</time>
      </trkpt>
      <trkpt lat="59.9725034" lon="17.7489126">
        <ele>41.9547</ele>
        <time>2013-03-06T18:52:15Z</time>
      </trkpt>
      <trkpt lat="59.9725149" lon="17.7488941">
        <ele>41.9547</ele>
        <time>2013-03-06T18:52:16Z</time>
      </trkpt>
      <trkpt lat="59.9725247" lon="17.7488758">
        <ele>42.4354</ele>
        <time>2013-03-06T18:52:17Z</time>
      </trkpt>
      <trkpt lat="59.9725336" lon="17.748852">
        <ele>42.4354</ele>
        <time>2013-03-06T18:52:18Z</time>
      </trkpt>
      <trkpt lat="59.9725437" lon="17.7488295">
        <ele>41.9547</ele>
        <time>2013-03-06T18:52:19Z</time>
      </trkpt>
      <trkpt lat="59.9725557" lon="17.7488066">
        <ele>42.4354</ele>
        <time>2013-03-06T18:52:20Z</time>
      </trkpt>
      <trkpt lat="59.9725655" lon="17.7487779">
        <ele>42.4354</ele>
        <time>2013-03-06T18:52:21Z</time>
      </trkpt>
      <trkpt lat="59.9725737" lon="17.7487473">
        <ele>42.916</ele>
        <time>2013-03-06T18:52:22Z</time>
      </trkpt>
      <trkpt lat="59.9725847" lon="17.748733">
        <ele>42.916</ele>
        <time>2013-03-06T18:52:23Z</time>
      </trkpt>
      <trkpt lat="59.9725959" lon="17.748713">
        <ele>43.3966</ele>
        <time>2013-03-06T18:52:24Z</time>
      </trkpt>
      <trkpt lat="59.9726025" lon="17.7486904">
        <ele>43.3966</ele>
        <time>2013-03-06T18:52:25Z</time>
      </trkpt>
      <trkpt lat="59.9726091" lon="17.7486604">
        <ele>43.3966</ele>
        <time>2013-03-06T18:52:26Z</time>
      </trkpt>
      <trkpt lat="59.9726201" lon="17.7486312">
        <ele>44.358</ele>
        <time>2013-03-06T18:52:27Z</time>
      </trkpt>
      <trkpt lat="59.972632" lon="17.748606">
        <ele>44.358</ele>
        <time>2013-03-06T18:52:28Z</time>
      </trkpt>
      <trkpt lat="59.9726411" lon="17.7485802">
        <ele>43.8773</ele>
        <time>2013-03-06T18:52:29Z</time>
      </trkpt>
      <trkpt lat="59.9726501" lon="17.7485547">
        <ele>43.8773</ele>
        <time>2013-03-06T18:52:30Z</time>
      </trkpt>
      <trkpt lat="59.9726635" lon="17.7485309">
        <ele>43.8773</ele>
        <time>2013-03-06T18:52:31Z</time>
      </trkpt>
      <trkpt lat="59.9726779" lon="17.7485107">
        <ele>43.8773</ele>
        <time>2013-03-06T18:52:32Z</time>
      </trkpt>
      <trkpt lat="59.9726925" lon="17.7484915">
        <ele>43.8773</ele>
        <time>2013-03-06T18:52:33Z</time>
      </trkpt>
      <trkpt lat="59.972708" lon="17.74847">
        <ele>43.8773</ele>
        <time>2013-03-06T18:52:34Z</time>
      </trkpt>
      <trkpt lat="59.972722" lon="17.748448">
        <ele>43.8773</ele>
        <time>2013-03-06T18:52:35Z</time>
      </trkpt>
      <trkpt lat="59.9727334" lon="17.7484248">
        <ele>43.3966</ele>
        <time>2013-03-06T18:52:36Z</time>
      </trkpt>
      <trkpt lat="59.9727428" lon="17.748402">
        <ele>42.916</ele>
        <time>2013-03-06T18:52:37Z</time>
      </trkpt>
      <trkpt lat="59.9727541" lon="17.7483806">
        <ele>42.4354</ele>
        <time>2013-03-06T18:52:38Z</time>
      </trkpt>
      <trkpt lat="59.9727671" lon="17.7483569">
        <ele>42.916</ele>
        <time>2013-03-06T18:52:39Z</time>
      </trkpt>
      <trkpt lat="59.9727775" lon="17.7483346">
        <ele>42.4354</ele>
        <time>2013-03-06T18:52:40Z</time>
      </trkpt>
      <trkpt lat="59.9727909" lon="17.7483129">
        <ele>42.4354</ele>
        <time>2013-03-06T18:52:41Z</time>
      </trkpt>
      <trkpt lat="59.9728045" lon="17.74829">
        <ele>42.4354</ele>
        <time>2013-03-06T18:52:42Z</time>
      </trkpt>
      <trkpt lat="59.9728179" lon="17.7482665">
        <ele>42.4354</ele>
        <time>2013-03-06T18:52:43Z</time>
      </trkpt>
      <trkpt lat="59.9728307" lon="17.7482403">
        <ele>42.916</ele>
        <time>2013-03-06T18:52:44Z</time>
      </trkpt>
      <trkpt lat="59.9728399" lon="17.7482191">
        <ele>41.9547</ele>
        <time>2013-03-06T18:52:45Z</time>
      </trkpt>
      <trkpt lat="59.9728514" lon="17.7482004">
        <ele>41.9547</ele>
        <time>2013-03-06T18:52:46Z</time>
      </trkpt>
      <trkpt lat="59.9728619" lon="17.7481841">
        <ele>41.474</ele>
        <time>2013-03-06T18:52:47Z</time>
      </trkpt>
      <trkpt lat="59.9728767" lon="17.7481657">
        <ele>40.9934</ele>
        <time>2013-03-06T18:52:48Z</time>
      </trkpt>
      <trkpt lat="59.9728897" lon="17.748147">
        <ele>40.5128</ele>
        <time>2013-03-06T18:52:49Z</time>
      </trkpt>
      <trkpt lat="59.9729002" lon="17.7481261">
        <ele>40.0321</ele>
        <time>2013-03-06T18:52:50Z</time>
      </trkpt>
      <trkpt lat="59.9729127" lon="17.7481026">
        <ele>40.5128</ele>
        <time>2013-03-06T18:52:51Z</time>
      </trkpt>
      <trkpt lat="59.972922" lon="17.7480807">
        <ele>40.9934</ele>
        <time>2013-03-06T18:52:52Z</time>
      </trkpt>
      <trkpt lat="59.9729309" lon="17.7480599">
        <ele>40.5128</ele>
        <time>2013-03-06T18:52:53Z</time>
      </trkpt>
      <trkpt lat="59.972944" lon="17.7480393">
        <ele>40.0321</ele>
        <time>2013-03-06T18:52:54Z</time>
      </trkpt>
      <trkpt lat="59.9729547" lon="17.7480149">
        <ele>40.0321</ele>
        <time>2013-03-06T18:52:55Z</time>
      </trkpt>
      <trkpt lat="59.9729648" lon="17.7479945">
        <ele>39.5513</ele>
        <time>2013-03-06T18:52:56Z</time>
      </trkpt>
      <trkpt lat="59.9729762" lon="17.7479781">
        <ele>39.0707</ele>
        <time>2013-03-06T18:52:57Z</time>
      </trkpt>
      <trkpt lat="59.9729883" lon="17.7479616">
        <ele>38.5901</ele>
        <time>2013-03-06T18:52:58Z</time>
      </trkpt>
      <trkpt lat="59.9730007" lon="17.747945">
        <ele>38.5901</ele>
        <time>2013-03-06T18:52:59Z</time>
      </trkpt>
      <trkpt lat="59.9730103" lon="17.7479269">
        <ele>38.1094</ele>
        <time>2013-03-06T18:53:00Z</time>
      </trkpt>
      <trkpt lat="59.9730207" lon="17.747909">
        <ele>37.6287</ele>
        <time>2013-03-06T18:53:01Z</time>
      </trkpt>
      <trkpt lat="59.9730332" lon="17.7478916">
        <ele>37.1481</ele>
        <time>2013-03-06T18:53:02Z</time>
      </trkpt>
      <trkpt lat="59.9730453" lon="17.747876">
        <ele>36.6675</ele>
        <time>2013-03-06T18:53:03Z</time>
      </trkpt>
      <trkpt lat="59.9730572" lon="17.7478585">
        <ele>36.6675</ele>
        <time>2013-03-06T18:53:04Z</time>
      </trkpt>
      <trkpt lat="59.97307" lon="17.7478405">
        <ele>36.6675</ele>
        <time>2013-03-06T18:53:05Z</time>
      </trkpt>
      <trkpt lat="59.9730832" lon="17.7478252">
        <ele>36.1868</ele>
        <time>2013-03-06T18:53:06Z</time>
      </trkpt>
      <trkpt lat="59.9730972" lon="17.7478115">
        <ele>35.7061</ele>
        <time>2013-03-06T18:53:07Z</time>
      </trkpt>
      <trkpt lat="59.9731079" lon="17.747792">
        <ele>35.7061</ele>
        <time>2013-03-06T18:53:08Z</time>
      </trkpt>
      <trkpt lat="59.9731189" lon="17.7477752">
        <ele>35.7061</ele>
        <time>2013-03-06T18:53:09Z</time>
      </trkpt>
      <trkpt lat="59.9731302" lon="17.747759">
        <ele>35.2255</ele>
        <time>2013-03-06T18:53:10Z</time>
      </trkpt>
      <trkpt lat="59.9731427" lon="17.7477424">
        <ele>35.7061</ele>
        <time>2013-03-06T18:53:11Z</time>
      </trkpt>
      <trkpt lat="59.9731551" lon="17.7477255">
        <ele>35.7061</ele>
        <time>2013-03-06T18:53:12Z</time>
      </trkpt>
      <trkpt lat="59.9731687" lon="17.7477102">
        <ele>35.7061</ele>
        <time>2013-03-06T18:53:13Z</time>
      </trkpt>
      <trkpt lat="59.973182" lon="17.7476974">
        <ele>35.7061</ele>
        <time>2013-03-06T18:53:14Z</time>
      </trkpt>
      <trkpt lat="59.973195" lon="17.7476843">
        <ele>36.1868</ele>
        <time>2013-03-06T18:53:15Z</time>
      </trkpt>
      <trkpt lat="59.9732085" lon="17.7476703">
        <ele>36.1868</ele>
        <time>2013-03-06T18:53:16Z</time>
      </trkpt>
      <trkpt lat="59.9732229" lon="17.7476559">
        <ele>36.1868</ele>
        <time>2013-03-06T18:53:17Z</time>
      </trkpt>
      <trkpt lat="59.9732372" lon="17.7476409">
        <ele>36.1868</ele>
        <time>2013-03-06T18:53:18Z</time>
      </trkpt>
      <trkpt lat="59.973251" lon="17.7476253">
        <ele>36.1868</ele>
        <time>2013-03-06T18:53:19Z</time>
      </trkpt>
      <trkpt lat="59.9732669" lon="17.7476098">
        <ele>36.6675</ele>
        <time>2013-03-06T18:53:20Z</time>
      </trkpt>
      <trkpt lat="59.9732804" lon="17.7475905">
        <ele>36.6675</ele>
        <time>2013-03-06T18:53:21Z</time>
      </trkpt>
      <trkpt lat="59.9732927" lon="17.7475679">
        <ele>36.6675</ele>
        <time>2013-03-06T18:53:22Z</time>
      </trkpt>
      <trkpt lat="59.9733074" lon="17.7475487">
        <ele>36.6675</ele>
        <time>2013-03-06T18:53:23Z</time>
      </trkpt>
      <trkpt lat="59.9733224" lon="17.7475347">
        <ele>36.6675</ele>
        <time>2013-03-06T18:53:24Z</time>
      </trkpt>
      <trkpt lat="59.9733374" lon="17.7475203">
        <ele>36.6675</ele>
        <time>2013-03-06T18:53:25Z</time>
      </trkpt>
      <trkpt lat="59.9733483" lon="17.7475088">
        <ele>36.1868</ele>
        <time>2013-03-06T18:53:26Z</time>
      </trkpt>
      <trkpt lat="59.9733607" lon="17.7474974">
        <ele>36.6675</ele>
        <time>2013-03-06T18:53:27Z</time>
      </trkpt>
      <trkpt lat="59.9733735" lon="17.7474915">
        <ele>36.1868</ele>
        <time>2013-03-06T18:53:28Z</time>
      </trkpt>
      <trkpt lat="59.9733849" lon="17.7474863">
        <ele>35.7061</ele>
        <time>2013-03-06T18:53:29Z</time>
      </trkpt>
      <trkpt lat="59.9734005" lon="17.7474771">
        <ele>35.2255</ele>
        <time>2013-03-06T18:53:30Z</time>
      </trkpt>
      <trkpt lat="59.9734172" lon="17.7474668">
        <ele>35.2255</ele>
        <time>2013-03-06T18:53:31Z</time>
      </trkpt>
      <trkpt lat="59.9734334" lon="17.7474556">
        <ele>34.7449</ele>
        <time>2013-03-06T18:53:32Z</time>
      </trkpt>
      <trkpt lat="59.9734509" lon="17.7474457">
        <ele>34.7449</ele>
        <time>2013-03-06T18:53:33Z</time>
      </trkpt>
      <trkpt lat="59.9734678" lon="17.7474328">
        <ele>34.7449</ele>
        <time>2013-03-06T18:53:34Z</time>
      </trkpt>
      <trkpt lat="59.9734809" lon="17.7474165">
        <ele>34.7449</ele>
        <time>2013-03-06T18:53:35Z</time>
      </trkpt>
      <trkpt lat="59.9734964" lon="17.7473949">
        <ele>34.7449</ele>
        <time>2013-03-06T18:53:36Z</time>
      </trkpt>
      <trkpt lat="59.9735177" lon="17.7473679">
        <ele>34.2642</ele>
        <time>2013-03-06T18:53:37Z</time>
      </trkpt>
      <trkpt lat="59.9735451" lon="17.7473458">
        <ele>34.2642</ele>
        <time>2013-03-06T18:53:38Z</time>
      </trkpt>
      <trkpt lat="59.9735777" lon="17.7473232">
        <ele>33.7834</ele>
        <time>2013-03-06T18:53:39Z</time>
      </trkpt>
      <trkpt lat="59.9736113" lon="17.7472969">
        <ele>33.7834</ele>
        <time>2013-03-06T18:53:40Z</time>
      </trkpt>
      <trkpt lat="59.9736362" lon="17.7472758">
        <ele>33.7834</ele>
        <time>2013-03-06T18:53:41Z</time>
      </trkpt>
      <trkpt lat="59.9736605" lon="17.7472551">
        <ele>33.7834</ele>
        <time>2013-03-06T18:53:42Z</time>
      </trkpt>
      <trkpt lat="59.9736844" lon="17.7472451">
        <ele>32.3416</ele>
        <time>2013-03-06T18:53:43Z</time>
      </trkpt>
      <trkpt lat="59.9737015" lon="17.7472363">
        <ele>32.8223</ele>
        <time>2013-03-06T18:53:44Z</time>
      </trkpt>
      <trkpt lat="59.9737119" lon="17.7472198">
        <ele>32.8223</ele>
        <time>2013-03-06T18:53:45Z</time>
      </trkpt>
      <trkpt lat="59.9737211" lon="17.7472016">
        <ele>33.3029</ele>
        <time>2013-03-06T18:53:46Z</time>
      </trkpt>
      <trkpt lat="59.9737331" lon="17.7471875">
        <ele>33.7834</ele>
        <time>2013-03-06T18:53:47Z</time>
      </trkpt>
      <trkpt lat="59.9737446" lon="17.7471799">
        <ele>34.2642</ele>
        <time>2013-03-06T18:53:48Z</time>
      </trkpt>
      <trkpt lat="59.9737534" lon="17.7471699">
        <ele>35.2255</ele>
        <time>2013-03-06T18:53:49Z</time>
      </trkpt>
      <trkpt lat="59.9737632" lon="17.7471565">
        <ele>35.2255</ele>
        <time>2013-03-06T18:53:50Z</time>
      </trkpt>
      <trkpt lat="59.9737771" lon="17.7471448">
        <ele>35.7061</ele>
        <time>2013-03-06T18:53:51Z</time>
      </trkpt>
      <trkpt lat="59.9737912" lon="17.7471363">
        <ele>36.1868</ele>
        <time>2013-03-06T18:53:52Z</time>
      </trkpt>
      <trkpt lat="59.9738051" lon="17.7471223">
        <ele>36.1868</ele>
        <time>2013-03-06T18:53:53Z</time>
      </trkpt>
      <trkpt lat="59.9738187" lon="17.7471053">
        <ele>36.1868</ele>
        <time>2013-03-06T18:53:54Z</time>
      </trkpt>
      <trkpt lat="59.9738316" lon="17.7470868">
        <ele>36.1868</ele>
        <time>2013-03-06T18:53:55Z</time>
      </trkpt>
      <trkpt lat="59.9738443" lon="17.7470648">
        <ele>36.1868</ele>
        <time>2013-03-06T18:53:56Z</time>
      </trkpt>
      <trkpt lat="59.9738565" lon="17.7470432">
        <ele>36.6675</ele>
        <time>2013-03-06T18:53:57Z</time>
      </trkpt>
      <trkpt lat="59.9738699" lon="17.7470243">
        <ele>37.1481</ele>
        <time>2013-03-06T18:53:58Z</time>
      </trkpt>
      <trkpt lat="59.9738848" lon="17.7470033">
        <ele>37.1481</ele>
        <time>2013-03-06T18:53:59Z</time>
      </trkpt>
      <trkpt lat="59.9738995" lon="17.7469802">
        <ele>37.6287</ele>
        <time>2013-03-06T18:54:00Z</time>
      </trkpt>
      <trkpt lat="59.9739125" lon="17.7469564">
        <ele>37.1481</ele>
        <time>2013-03-06T18:54:01Z</time>
      </trkpt>
      <trkpt lat="59.9739281" lon="17.746941">
        <ele>37.1481</ele>
        <time>2013-03-06T18:54:02Z</time>
      </trkpt>
      <trkpt lat="59.973943" lon="17.7469255">
        <ele>37.1481</ele>
        <time>2013-03-06T18:54:03Z</time>
      </trkpt>
      <trkpt lat="59.973957" lon="17.7469095">
        <ele>37.1481</ele>
        <time>2013-03-06T18:54:04Z</time>
      </trkpt>
      <trkpt lat="59.9739694" lon="17.7468919">
        <ele>36.6675</ele>
        <time>2013-03-06T18:54:05Z</time>
      </trkpt>
      <trkpt lat="59.9739823" lon="17.7468746">
        <ele>36.6675</ele>
        <time>2013-03-06T18:54:06Z</time>
      </trkpt>
      <trkpt lat="59.9739958" lon="17.7468593">
        <ele>36.1868</ele>
        <time>2013-03-06T18:54:07Z</time>
      </trkpt>
      <trkpt lat="59.9740102" lon="17.7468451">
        <ele>36.1868</ele>
        <time>2013-03-06T18:54:08Z</time>
      </trkpt>
      <trkpt lat="59.9740258" lon="17.74683">
        <ele>36.1868</ele>
        <time>2013-03-06T18:54:09Z</time>
      </trkpt>
      <trkpt lat="59.9740397" lon="17.7468127">
        <ele>36.1868</ele>
        <time>2013-03-06T18:54:10Z</time>
      </trkpt>
      <trkpt lat="59.9740533" lon="17.7467929">
        <ele>35.7061</ele>
        <time>2013-03-06T18:54:11Z</time>
      </trkpt>
      <trkpt lat="59.9740683" lon="17.7467742">
        <ele>36.1868</ele>
        <time>2013-03-06T18:54:12Z</time>
      </trkpt>
      <trkpt lat="59.9740823" lon="17.7467557">
        <ele>36.1868</ele>
        <time>2013-03-06T18:54:13Z</time>
      </trkpt>
      <trkpt lat="59.9740964" lon="17.7467374">
        <ele>36.1868</ele>
        <time>2013-03-06T18:54:14Z</time>
      </trkpt>
      <trkpt lat="59.9741101" lon="17.7467209">
        <ele>36.1868</ele>
        <time>2013-03-06T18:54:15Z</time>
      </trkpt>
      <trkpt lat="59.9741239" lon="17.7467036">
        <ele>36.1868</ele>
        <time>2013-03-06T18:54:16Z</time>
      </trkpt>
      <trkpt lat="59.9741375" lon="17.7466882">
        <ele>36.1868</ele>
        <time>2013-03-06T18:54:17Z</time>
      </trkpt>
      <trkpt lat="59.9741497" lon="17.746672">
        <ele>36.1868</ele>
        <time>2013-03-06T18:54:18Z</time>
      </trkpt>
      <trkpt lat="59.9741626" lon="17.7466562">
        <ele>36.1868</ele>
        <time>2013-03-06T18:54:19Z</time>
      </trkpt>
      <trkpt lat="59.9741755" lon="17.7466396">
        <ele>36.1868</ele>
        <time>2013-03-06T18:54:20Z</time>
      </trkpt>
      <trkpt lat="59.9741886" lon="17.7466219">
        <ele>36.1868</ele>
        <time>2013-03-06T18:54:21Z</time>
      </trkpt>
      <trkpt lat="59.9742025" lon="17.7466055">
        <ele>36.1868</ele>
        <time>2013-03-06T18:54:22Z</time>
      </trkpt>
      <trkpt lat="59.9742152" lon="17.7465908">
        <ele>36.1868</ele>
        <time>2013-03-06T18:54:23Z</time>
      </trkpt>
      <trkpt lat="59.9742284" lon="17.7465724">
        <ele>36.1868</ele>
        <time>2013-03-06T18:54:24Z</time>
      </trkpt>
      <trkpt lat="59.9742419" lon="17.7465546">
        <ele>36.1868</ele>
        <time>2013-03-06T18:54:25Z</time>
      </trkpt>
      <trkpt lat="59.9742557" lon="17.7465363">
        <ele>36.1868</ele>
        <time>2013-03-06T18:54:26Z</time>
      </trkpt>
      <trkpt lat="59.9742698" lon="17.7465194">
        <ele>36.1868</ele>
        <time>2013-03-06T18:54:27Z</time>
      </trkpt>
      <trkpt lat="59.9742844" lon="17.7465004">
        <ele>36.1868</ele>
        <time>2013-03-06T18:54:28Z</time>
      </trkpt>
      <trkpt lat="59.9742974" lon="17.7464753">
        <ele>36.1868</ele>
        <time>2013-03-06T18:54:29Z</time>
      </trkpt>
      <trkpt lat="59.9743103" lon="17.74645">
        <ele>36.1868</ele>
        <time>2013-03-06T18:54:30Z</time>
      </trkpt>
      <trkpt lat="59.9743222" lon="17.7464262">
        <ele>35.7061</ele>
        <time>2013-03-06T18:54:31Z</time>
      </trkpt>
      <trkpt lat="59.9743352" lon="17.7464082">
        <ele>35.7061</ele>
        <time>2013-03-06T18:54:32Z</time>
      </trkpt>
      <trkpt lat="59.9743477" lon="17.746392">
        <ele>35.2255</ele>
        <time>2013-03-06T18:54:33Z</time>
      </trkpt>
      <trkpt lat="59.9743604" lon="17.7463734">
        <ele>35.2255</ele>
        <time>2013-03-06T18:54:34Z</time>
      </trkpt>
      <trkpt lat="59.9743719" lon="17.7463546">
        <ele>35.2255</ele>
        <time>2013-03-06T18:54:35Z</time>
      </trkpt>
      <trkpt lat="59.9743839" lon="17.7463348">
        <ele>34.7449</ele>
        <time>2013-03-06T18:54:36Z</time>
      </trkpt>
      <trkpt lat="59.9743966" lon="17.7463162">
        <ele>34.7449</ele>
        <time>2013-03-06T18:54:37Z</time>
      </trkpt>
      <trkpt lat="59.9744095" lon="17.7462951">
        <ele>35.2255</ele>
        <time>2013-03-06T18:54:38Z</time>
      </trkpt>
      <trkpt lat="59.9744225" lon="17.7462743">
        <ele>35.2255</ele>
        <time>2013-03-06T18:54:39Z</time>
      </trkpt>
      <trkpt lat="59.974437" lon="17.7462573">
        <ele>35.7061</ele>
        <time>2013-03-06T18:54:40Z</time>
      </trkpt>
      <trkpt lat="59.9744506" lon="17.7462427">
        <ele>35.7061</ele>
        <time>2013-03-06T18:54:41Z</time>
      </trkpt>
      <trkpt lat="59.9744639" lon="17.7462263">
        <ele>35.2255</ele>
        <time>2013-03-06T18:54:42Z</time>
      </trkpt>
      <trkpt lat="59.9744774" lon="17.7462086">
        <ele>35.2255</ele>
        <time>2013-03-06T18:54:43Z</time>
      </trkpt>
      <trkpt lat="59.974491" lon="17.7461906">
        <ele>34.7449</ele>
        <time>2013-03-06T18:54:44Z</time>
      </trkpt>
      <trkpt lat="59.9745058" lon="17.7461711">
        <ele>34.7449</ele>
        <time>2013-03-06T18:54:45Z</time>
      </trkpt>
      <trkpt lat="59.9745169" lon="17.7461469">
        <ele>35.2255</ele>
        <time>2013-03-06T18:54:46Z</time>
      </trkpt>
      <trkpt lat="59.9745263" lon="17.7461216">
        <ele>35.2255</ele>
        <time>2013-03-06T18:54:47Z</time>
      </trkpt>
      <trkpt lat="59.9745376" lon="17.7461009">
        <ele>35.2255</ele>
        <time>2013-03-06T18:54:48Z</time>
      </trkpt>
      <trkpt lat="59.9745496" lon="17.7460811">
        <ele>35.2255</ele>
        <time>2013-03-06T18:54:49Z</time>
      </trkpt>
      <trkpt lat="59.9745614" lon="17.7460609">
        <ele>35.2255</ele>
        <time>2013-03-06T18:54:50Z</time>
      </trkpt>
      <trkpt lat="59.9745729" lon="17.7460393">
        <ele>35.2255</ele>
        <time>2013-03-06T18:54:51Z</time>
      </trkpt>
      <trkpt lat="59.9745849" lon="17.7460204">
        <ele>35.7061</ele>
        <time>2013-03-06T18:54:52Z</time>
      </trkpt>
      <trkpt lat="59.9745973" lon="17.7460039">
        <ele>35.7061</ele>
        <time>2013-03-06T18:54:53Z</time>
      </trkpt>
      <trkpt lat="59.9746096" lon="17.7459854">
        <ele>35.7061</ele>
        <time>2013-03-06T18:54:54Z</time>
      </trkpt>
      <trkpt lat="59.9746212" lon="17.7459645">
        <ele>35.7061</ele>
        <time>2013-03-06T18:54:55Z</time>
      </trkpt>
      <trkpt lat="59.9746322" lon="17.7459435">
        <ele>36.1868</ele>
        <time>2013-03-06T18:54:56Z</time>
      </trkpt>
      <trkpt lat="59.9746426" lon="17.7459215">
        <ele>36.1868</ele>
        <time>2013-03-06T18:54:57Z</time>
      </trkpt>
      <trkpt lat="59.9746531" lon="17.7459002">
        <ele>36.1868</ele>
        <time>2013-03-06T18:54:58Z</time>
      </trkpt>
      <trkpt lat="59.974663" lon="17.7458781">
        <ele>36.1868</ele>
        <time>2013-03-06T18:54:59Z</time>
      </trkpt>
      <trkpt lat="59.9746734" lon="17.7458549">
        <ele>36.1868</ele>
        <time>2013-03-06T18:55:00Z</time>
      </trkpt>
      <trkpt lat="59.974683" lon="17.7458261">
        <ele>36.1868</ele>
        <time>2013-03-06T18:55:01Z</time>
      </trkpt>
      <trkpt lat="59.9746926" lon="17.7458014">
        <ele>36.1868</ele>
        <time>2013-03-06T18:55:02Z</time>
      </trkpt>
      <trkpt lat="59.9747024" lon="17.7457805">
        <ele>36.1868</ele>
        <time>2013-03-06T18:55:03Z</time>
      </trkpt>
      <trkpt lat="59.9747138" lon="17.7457607">
        <ele>36.1868</ele>
        <time>2013-03-06T18:55:04Z</time>
      </trkpt>
      <trkpt lat="59.9747265" lon="17.7457408">
        <ele>36.1868</ele>
        <time>2013-03-06T18:55:05Z</time>
      </trkpt>
      <trkpt lat="59.9747366" lon="17.7457194">
        <ele>36.1868</ele>
        <time>2013-03-06T18:55:06Z</time>
      </trkpt>
      <trkpt lat="59.9747449" lon="17.745693">
        <ele>36.1868</ele>
        <time>2013-03-06T18:55:07Z</time>
      </trkpt>
      <trkpt lat="59.9747537" lon="17.7456652">
        <ele>35.7061</ele>
        <time>2013-03-06T18:55:08Z</time>
      </trkpt>
      <trkpt lat="59.9747651" lon="17.7456405">
        <ele>35.7061</ele>
        <time>2013-03-06T18:55:09Z</time>
      </trkpt>
      <trkpt lat="59.9747763" lon="17.7456175">
        <ele>35.7061</ele>
        <time>2013-03-06T18:55:10Z</time>
      </trkpt>
      <trkpt lat="59.9747854" lon="17.745593">
        <ele>35.7061</ele>
        <time>2013-03-06T18:55:11Z</time>
      </trkpt>
      <trkpt lat="59.9747951" lon="17.7455695">
        <ele>35.7061</ele>
        <time>2013-03-06T18:55:12Z</time>
      </trkpt>
      <trkpt lat="59.9748038" lon="17.74554">
        <ele>35.7061</ele>
        <time>2013-03-06T18:55:13Z</time>
      </trkpt>
      <trkpt lat="59.9748128" lon="17.7455177">
        <ele>35.7061</ele>
        <time>2013-03-06T18:55:14Z</time>
      </trkpt>
      <trkpt lat="59.9748223" lon="17.7454964">
        <ele>35.7061</ele>
        <time>2013-03-06T18:55:15Z</time>
      </trkpt>
      <trkpt lat="59.9748313" lon="17.7454736">
        <ele>35.2255</ele>
        <time>2013-03-06T18:55:16Z</time>
      </trkpt>
      <trkpt lat="59.9748407" lon="17.7454509">
        <ele>35.7061</ele>
        <time>2013-03-06T18:55:17Z</time>
      </trkpt>
      <trkpt lat="59.974849" lon="17.7454291">
        <ele>35.7061</ele>
        <time>2013-03-06T18:55:18Z</time>
      </trkpt>
      <trkpt lat="59.9748577" lon="17.7454069">
        <ele>35.2255</ele>
        <time>2013-03-06T18:55:19Z</time>
      </trkpt>
      <trkpt lat="59.9748672" lon="17.7453828">
        <ele>35.2255</ele>
        <time>2013-03-06T18:55:20Z</time>
      </trkpt>
      <trkpt lat="59.9748764" lon="17.7453594">
        <ele>35.2255</ele>
        <time>2013-03-06T18:55:21Z</time>
      </trkpt>
      <trkpt lat="59.9748852" lon="17.7453357">
        <ele>35.7061</ele>
        <time>2013-03-06T18:55:22Z</time>
      </trkpt>
      <trkpt lat="59.9748925" lon="17.7453135">
        <ele>35.2255</ele>
        <time>2013-03-06T18:55:23Z</time>
      </trkpt>
      <trkpt lat="59.9749012" lon="17.7452933">
        <ele>35.7061</ele>
        <time>2013-03-06T18:55:24Z</time>
      </trkpt>
      <trkpt lat="59.9749095" lon="17.7452705">
        <ele>35.2255</ele>
        <time>2013-03-06T18:55:25Z</time>
      </trkpt>
      <trkpt lat="59.9749184" lon="17.7452455">
        <ele>35.2255</ele>
        <time>2013-03-06T18:55:26Z</time>
      </trkpt>
      <trkpt lat="59.9749277" lon="17.7452197">
        <ele>35.2255</ele>
        <time>2013-03-06T18:55:27Z</time>
      </trkpt>
      <trkpt lat="59.9749365" lon="17.7451929">
        <ele>35.2255</ele>
        <time>2013-03-06T18:55:28Z</time>
      </trkpt>
      <trkpt lat="59.9749458" lon="17.7451655">
        <ele>35.2255</ele>
        <time>2013-03-06T18:55:29Z</time>
      </trkpt>
      <trkpt lat="59.9749555" lon="17.7451396">
        <ele>34.7449</ele>
        <time>2013-03-06T18:55:30Z</time>
      </trkpt>
      <trkpt lat="59.9749658" lon="17.7451151">
        <ele>34.7449</ele>
        <time>2013-03-06T18:55:31Z</time>
      </trkpt>
      <trkpt lat="59.974975" lon="17.7450888">
        <ele>35.2255</ele>
        <time>2013-03-06T18:55:32Z</time>
      </trkpt>
      <trkpt lat="59.9749838" lon="17.7450619">
        <ele>34.7449</ele>
        <time>2013-03-06T18:55:33Z</time>
      </trkpt>
      <trkpt lat="59.9749928" lon="17.7450356">
        <ele>35.2255</ele>
        <time>2013-03-06T18:55:34Z</time>
      </trkpt>
      <trkpt lat="59.9749987" lon="17.7449981">
        <ele>35.7061</ele>
        <time>2013-03-06T18:55:35Z</time>
      </trkpt>
      <trkpt lat="59.9750054" lon="17.744966">
        <ele>36.1868</ele>
        <time>2013-03-06T18:55:36Z</time>
      </trkpt>
      <trkpt lat="59.9750128" lon="17.7449395">
        <ele>36.6675</ele>
        <time>2013-03-06T18:55:37Z</time>
      </trkpt>
      <trkpt lat="59.9750199" lon="17.7449135">
        <ele>36.6675</ele>
        <time>2013-03-06T18:55:38Z</time>
      </trkpt>
      <trkpt lat="59.9750286" lon="17.7448877">
        <ele>36.1868</ele>
        <time>2013-03-06T18:55:39Z</time>
      </trkpt>
      <trkpt lat="59.9750365" lon="17.7448575">
        <ele>36.1868</ele>
        <time>2013-03-06T18:55:40Z</time>
      </trkpt>
      <trkpt lat="59.9750446" lon="17.7448272">
        <ele>36.6675</ele>
        <time>2013-03-06T18:55:41Z</time>
      </trkpt>
      <trkpt lat="59.9750516" lon="17.7448008">
        <ele>36.6675</ele>
        <time>2013-03-06T18:55:42Z</time>
      </trkpt>
      <trkpt lat="59.9750601" lon="17.7447746">
        <ele>36.6675</ele>
        <time>2013-03-06T18:55:43Z</time>
      </trkpt>
      <trkpt lat="59.9750686" lon="17.744749">
        <ele>36.6675</ele>
        <time>2013-03-06T18:55:44Z</time>
      </trkpt>
      <trkpt lat="59.9750769" lon="17.7447235">
        <ele>36.6675</ele>
        <time>2013-03-06T18:55:45Z</time>
      </trkpt>
      <trkpt lat="59.9750852" lon="17.7446985">
        <ele>36.6675</ele>
        <time>2013-03-06T18:55:46Z</time>
      </trkpt>
      <trkpt lat="59.9750924" lon="17.7446696">
        <ele>36.6675</ele>
        <time>2013-03-06T18:55:47Z</time>
      </trkpt>
      <trkpt lat="59.9751003" lon="17.7446432">
        <ele>36.6675</ele>
        <time>2013-03-06T18:55:48Z</time>
      </trkpt>
      <trkpt lat="59.9751078" lon="17.7446114">
        <ele>36.1868</ele>
        <time>2013-03-06T18:55:49Z</time>
      </trkpt>
      <trkpt lat="59.9751157" lon="17.7445826">
        <ele>36.1868</ele>
        <time>2013-03-06T18:55:50Z</time>
      </trkpt>
      <trkpt lat="59.9751229" lon="17.7445541">
        <ele>36.1868</ele>
        <time>2013-03-06T18:55:51Z</time>
      </trkpt>
      <trkpt lat="59.9751287" lon="17.7445207">
        <ele>36.1868</ele>
        <time>2013-03-06T18:55:52Z</time>
      </trkpt>
      <trkpt lat="59.9751349" lon="17.7444904">
        <ele>36.1868</ele>
        <time>2013-03-06T18:55:53Z</time>
      </trkpt>
      <trkpt lat="59.9751411" lon="17.7444578">
        <ele>36.1868</ele>
        <time>2013-03-06T18:55:54Z</time>
      </trkpt>
      <trkpt lat="59.9751479" lon="17.7444249">
        <ele>36.1868</ele>
        <time>2013-03-06T18:55:55Z</time>
      </trkpt>
      <trkpt lat="59.9751551" lon="17.7443926">
        <ele>36.1868</ele>
        <time>2013-03-06T18:55:56Z</time>
      </trkpt>
      <trkpt lat="59.9751629" lon="17.744363">
        <ele>36.1868</ele>
        <time>2013-03-06T18:55:57Z</time>
      </trkpt>
      <trkpt lat="59.9751696" lon="17.7443323">
        <ele>36.1868</ele>
        <time>2013-03-06T18:55:58Z</time>
      </trkpt>
      <trkpt lat="59.9751769" lon="17.7443047">
        <ele>36.6675</ele>
        <time>2013-03-06T18:55:59Z</time>
      </trkpt>
      <trkpt lat="59.9751839" lon="17.7442759">
        <ele>36.6675</ele>
        <time>2013-03-06T18:56:00Z</time>
      </trkpt>
      <trkpt lat="59.9751897" lon="17.7442469">
        <ele>36.6675</ele>
        <time>2013-03-06T18:56:01Z</time>
      </trkpt>
      <trkpt lat="59.9751955" lon="17.744221">
        <ele>36.6675</ele>
        <time>2013-03-06T18:56:02Z</time>
      </trkpt>
      <trkpt lat="59.9752007" lon="17.7441936">
        <ele>36.6675</ele>
        <time>2013-03-06T18:56:03Z</time>
      </trkpt>
      <trkpt lat="59.9752059" lon="17.7441631">
        <ele>36.1868</ele>
        <time>2013-03-06T18:56:04Z</time>
      </trkpt>
      <trkpt lat="59.9752104" lon="17.7441331">
        <ele>36.1868</ele>
        <time>2013-03-06T18:56:05Z</time>
      </trkpt>
      <trkpt lat="59.9752147" lon="17.744105">
        <ele>36.1868</ele>
        <time>2013-03-06T18:56:06Z</time>
      </trkpt>
      <trkpt lat="59.9752194" lon="17.7440759">
        <ele>36.6675</ele>
        <time>2013-03-06T18:56:07Z</time>
      </trkpt>
      <trkpt lat="59.9752241" lon="17.7440449">
        <ele>36.1868</ele>
        <time>2013-03-06T18:56:08Z</time>
      </trkpt>
      <trkpt lat="59.9752291" lon="17.7440134">
        <ele>36.1868</ele>
        <time>2013-03-06T18:56:09Z</time>
      </trkpt>
      <trkpt lat="59.9752338" lon="17.7439832">
        <ele>36.1868</ele>
        <time>2013-03-06T18:56:10Z</time>
      </trkpt>
      <trkpt lat="59.9752386" lon="17.7439533">
        <ele>36.1868</ele>
        <time>2013-03-06T18:56:11Z</time>
      </trkpt>
      <trkpt lat="59.9752435" lon="17.7439243">
        <ele>36.1868</ele>
        <time>2013-03-06T18:56:12Z</time>
      </trkpt>
      <trkpt lat="59.9752473" lon="17.7438958">
        <ele>36.1868</ele>
        <time>2013-03-06T18:56:13Z</time>
      </trkpt>
      <trkpt lat="59.9752509" lon="17.7438666">
        <ele>36.1868</ele>
        <time>2013-03-06T18:56:14Z</time>
      </trkpt>
      <trkpt lat="59.9752546" lon="17.7438354">
        <ele>36.1868</ele>
        <time>2013-03-06T18:56:15Z</time>
      </trkpt>
      <trkpt lat="59.9752587" lon="17.7438069">
        <ele>36.1868</ele>
        <time>2013-03-06T18:56:16Z</time>
      </trkpt>
      <trkpt lat="59.9752629" lon="17.7437797">
        <ele>35.7061</ele>
        <time>2013-03-06T18:56:17Z</time>
      </trkpt>
      <trkpt lat="59.9752673" lon="17.7437537">
        <ele>35.2255</ele>
        <time>2013-03-06T18:56:18Z</time>
      </trkpt>
      <trkpt lat="59.9752723" lon="17.7437254">
        <ele>35.2255</ele>
        <time>2013-03-06T18:56:19Z</time>
      </trkpt>
      <trkpt lat="59.9752779" lon="17.7436974">
        <ele>35.2255</ele>
        <time>2013-03-06T18:56:20Z</time>
      </trkpt>
      <trkpt lat="59.9752832" lon="17.7436692">
        <ele>35.2255</ele>
        <time>2013-03-06T18:56:21Z</time>
      </trkpt>
      <trkpt lat="59.9752876" lon="17.7436423">
        <ele>35.2255</ele>
        <time>2013-03-06T18:56:22Z</time>
      </trkpt>
      <trkpt lat="59.975292" lon="17.7436142">
        <ele>35.7061</ele>
        <time>2013-03-06T18:56:23Z</time>
      </trkpt>
      <trkpt lat="59.975298" lon="17.743587">
        <ele>35.7061</ele>
        <time>2013-03-06T18:56:24Z</time>
      </trkpt>
      <trkpt lat="59.9753047" lon="17.7435593">
        <ele>35.2255</ele>
        <time>2013-03-06T18:56:25Z</time>
      </trkpt>
      <trkpt lat="59.975311" lon="17.7435308">
        <ele>35.7061</ele>
        <time>2013-03-06T18:56:26Z</time>
      </trkpt>
      <trkpt lat="59.9753162" lon="17.7435024">
        <ele>35.2255</ele>
        <time>2013-03-06T18:56:27Z</time>
      </trkpt>
      <trkpt lat="59.9753214" lon="17.7434731">
        <ele>35.2255</ele>
        <time>2013-03-06T18:56:28Z</time>
      </trkpt>
      <trkpt lat="59.9753265" lon="17.7434413">
        <ele>35.7061</ele>
        <time>2013-03-06T18:56:29Z</time>
      </trkpt>
      <trkpt lat="59.9753323" lon="17.7434088">
        <ele>35.7061</ele>
        <time>2013-03-06T18:56:30Z</time>
      </trkpt>
      <trkpt lat="59.9753393" lon="17.7433762">
        <ele>36.1868</ele>
        <time>2013-03-06T18:56:31Z</time>
      </trkpt>
      <trkpt lat="59.9753458" lon="17.7433477">
        <ele>36.1868</ele>
        <time>2013-03-06T18:56:32Z</time>
      </trkpt>
      <trkpt lat="59.9753523" lon="17.7433175">
        <ele>36.1868</ele>
        <time>2013-03-06T18:56:33Z</time>
      </trkpt>
      <trkpt lat="59.975358" lon="17.7432865">
        <ele>36.1868</ele>
        <time>2013-03-06T18:56:34Z</time>
      </trkpt>
      <trkpt lat="59.9753623" lon="17.7432589">
        <ele>36.1868</ele>
        <time>2013-03-06T18:56:35Z</time>
      </trkpt>
      <trkpt lat="59.9753675" lon="17.7432316">
        <ele>36.1868</ele>
        <time>2013-03-06T18:56:36Z</time>
      </trkpt>
      <trkpt lat="59.975373" lon="17.7432005">
        <ele>36.6675</ele>
        <time>2013-03-06T18:56:37Z</time>
      </trkpt>
      <trkpt lat="59.9753775" lon="17.7431687">
        <ele>36.6675</ele>
        <time>2013-03-06T18:56:38Z</time>
      </trkpt>
      <trkpt lat="59.975383" lon="17.7431383">
        <ele>37.1481</ele>
        <time>2013-03-06T18:56:39Z</time>
      </trkpt>
      <trkpt lat="59.9753907" lon="17.7431059">
        <ele>37.1481</ele>
        <time>2013-03-06T18:56:40Z</time>
      </trkpt>
      <trkpt lat="59.9753982" lon="17.7430729">
        <ele>37.6287</ele>
        <time>2013-03-06T18:56:41Z</time>
      </trkpt>
      <trkpt lat="59.9754053" lon="17.743038">
        <ele>37.6287</ele>
        <time>2013-03-06T18:56:42Z</time>
      </trkpt>
      <trkpt lat="59.9754142" lon="17.7430042">
        <ele>37.6287</ele>
        <time>2013-03-06T18:56:43Z</time>
      </trkpt>
      <trkpt lat="59.9754234" lon="17.7429741">
        <ele>37.6287</ele>
        <time>2013-03-06T18:56:44Z</time>
      </trkpt>
      <trkpt lat="59.9754316" lon="17.7429424">
        <ele>37.6287</ele>
        <time>2013-03-06T18:56:45Z</time>
      </trkpt>
      <trkpt lat="59.9754395" lon="17.7429104">
        <ele>37.6287</ele>
        <time>2013-03-06T18:56:46Z</time>
      </trkpt>
      <trkpt lat="59.9754473" lon="17.7428779">
        <ele>37.6287</ele>
        <time>2013-03-06T18:56:47Z</time>
      </trkpt>
      <trkpt lat="59.9754544" lon="17.7428467">
        <ele>37.1481</ele>
        <time>2013-03-06T18:56:48Z</time>
      </trkpt>
      <trkpt lat="59.9754616" lon="17.7428176">
        <ele>37.1481</ele>
        <time>2013-03-06T18:56:49Z</time>
      </trkpt>
      <trkpt lat="59.9754673" lon="17.7427875">
        <ele>37.1481</ele>
        <time>2013-03-06T18:56:50Z</time>
      </trkpt>
      <trkpt lat="59.9754745" lon="17.7427583">
        <ele>36.6675</ele>
        <time>2013-03-06T18:56:51Z</time>
      </trkpt>
      <trkpt lat="59.9754818" lon="17.7427301">
        <ele>36.6675</ele>
        <time>2013-03-06T18:56:52Z</time>
      </trkpt>
      <trkpt lat="59.9754892" lon="17.7427017">
        <ele>36.6675</ele>
        <time>2013-03-06T18:56:53Z</time>
      </trkpt>
      <trkpt lat="59.9754973" lon="17.742672">
        <ele>36.6675</ele>
        <time>2013-03-06T18:56:54Z</time>
      </trkpt>
      <trkpt lat="59.9755053" lon="17.7426432">
        <ele>36.6675</ele>
        <time>2013-03-06T18:56:55Z</time>
      </trkpt>
      <trkpt lat="59.9755126" lon="17.7426167">
        <ele>36.6675</ele>
        <time>2013-03-06T18:56:56Z</time>
      </trkpt>
      <trkpt lat="59.9755197" lon="17.7425887">
        <ele>36.6675</ele>
        <time>2013-03-06T18:56:57Z</time>
      </trkpt>
      <trkpt lat="59.9755264" lon="17.7425588">
        <ele>36.6675</ele>
        <time>2013-03-06T18:56:58Z</time>
      </trkpt>
      <trkpt lat="59.9755333" lon="17.7425292">
        <ele>36.6675</ele>
        <time>2013-03-06T18:56:59Z</time>
      </trkpt>
      <trkpt lat="59.9755404" lon="17.742499">
        <ele>37.1481</ele>
        <time>2013-03-06T18:57:00Z</time>
      </trkpt>
      <trkpt lat="59.9755472" lon="17.74247">
        <ele>37.6287</ele>
        <time>2013-03-06T18:57:01Z</time>
      </trkpt>
      <trkpt lat="59.9755536" lon="17.7424379">
        <ele>37.6287</ele>
        <time>2013-03-06T18:57:02Z</time>
      </trkpt>
      <trkpt lat="59.9755616" lon="17.7424085">
        <ele>37.6287</ele>
        <time>2013-03-06T18:57:03Z</time>
      </trkpt>
      <trkpt lat="59.9755694" lon="17.7423795">
        <ele>38.1094</ele>
        <time>2013-03-06T18:57:04Z</time>
      </trkpt>
      <trkpt lat="59.9755762" lon="17.7423505">
        <ele>38.1094</ele>
        <time>2013-03-06T18:57:05Z</time>
      </trkpt>
      <trkpt lat="59.975583" lon="17.74232">
        <ele>38.1094</ele>
        <time>2013-03-06T18:57:06Z</time>
      </trkpt>
      <trkpt lat="59.9755907" lon="17.7422957">
        <ele>38.5901</ele>
        <time>2013-03-06T18:57:07Z</time>
      </trkpt>
      <trkpt lat="59.9755975" lon="17.7422728">
        <ele>38.5901</ele>
        <time>2013-03-06T18:57:08Z</time>
      </trkpt>
      <trkpt lat="59.9756045" lon="17.7422484">
        <ele>39.0707</ele>
        <time>2013-03-06T18:57:09Z</time>
      </trkpt>
      <trkpt lat="59.9756114" lon="17.7422211">
        <ele>39.0707</ele>
        <time>2013-03-06T18:57:10Z</time>
      </trkpt>
      <trkpt lat="59.9756185" lon="17.7421936">
        <ele>39.0707</ele>
        <time>2013-03-06T18:57:11Z</time>
      </trkpt>
      <trkpt lat="59.9756255" lon="17.7421672">
        <ele>39.0707</ele>
        <time>2013-03-06T18:57:12Z</time>
      </trkpt>
      <trkpt lat="59.9756312" lon="17.7421422">
        <ele>39.0707</ele>
        <time>2013-03-06T18:57:13Z</time>
      </trkpt>
      <trkpt lat="59.9756374" lon="17.7421156">
        <ele>39.0707</ele>
        <time>2013-03-06T18:57:14Z</time>
      </trkpt>
      <trkpt lat="59.975645" lon="17.7420879">
        <ele>39.0707</ele>
        <time>2013-03-06T18:57:15Z</time>
      </trkpt>
      <trkpt lat="59.9756514" lon="17.7420619">
        <ele>39.5513</ele>
        <time>2013-03-06T18:57:16Z</time>
      </trkpt>
      <trkpt lat="59.9756576" lon="17.7420354">
        <ele>39.5513</ele>
        <time>2013-03-06T18:57:17Z</time>
      </trkpt>
      <trkpt lat="59.9756641" lon="17.7420065">
        <ele>39.5513</ele>
        <time>2013-03-06T18:57:18Z</time>
      </trkpt>
      <trkpt lat="59.9756708" lon="17.7419749">
        <ele>39.5513</ele>
        <time>2013-03-06T18:57:19Z</time>
      </trkpt>
      <trkpt lat="59.9756768" lon="17.7419424">
        <ele>39.5513</ele>
        <time>2013-03-06T18:57:20Z</time>
      </trkpt>
      <trkpt lat="59.9756831" lon="17.7419102">
        <ele>40.0321</ele>
        <time>2013-03-06T18:57:21Z</time>
      </trkpt>
      <trkpt lat="59.9756907" lon="17.7418802">
        <ele>40.0321</ele>
        <time>2013-03-06T18:57:22Z</time>
      </trkpt>
      <trkpt lat="59.9756979" lon="17.7418511">
        <ele>40.0321</ele>
        <time>2013-03-06T18:57:23Z</time>
      </trkpt>
      <trkpt lat="59.9757054" lon="17.741823">
        <ele>40.0321</ele>
        <time>2013-03-06T18:57:24Z</time>
      </trkpt>
      <trkpt lat="59.9757135" lon="17.7417953">
        <ele>40.0321</ele>
        <time>2013-03-06T18:57:25Z</time>
      </trkpt>
      <trkpt lat="59.9757208" lon="17.7417662">
        <ele>40.0321</ele>
        <time>2013-03-06T18:57:26Z</time>
      </trkpt>
      <trkpt lat="59.9757286" lon="17.7417368">
        <ele>40.0321</ele>
        <time>2013-03-06T18:57:27Z</time>
      </trkpt>
      <trkpt lat="59.9757359" lon="17.7417101">
        <ele>40.0321</ele>
        <time>2013-03-06T18:57:28Z</time>
      </trkpt>
      <trkpt lat="59.9757431" lon="17.7416838">
        <ele>40.5128</ele>
        <time>2013-03-06T18:57:29Z</time>
      </trkpt>
      <trkpt lat="59.9757493" lon="17.7416575">
        <ele>40.5128</ele>
        <time>2013-03-06T18:57:30Z</time>
      </trkpt>
      <trkpt lat="59.9757564" lon="17.7416298">
        <ele>40.0321</ele>
        <time>2013-03-06T18:57:31Z</time>
      </trkpt>
      <trkpt lat="59.9757634" lon="17.7416012">
        <ele>40.0321</ele>
        <time>2013-03-06T18:57:32Z</time>
      </trkpt>
      <trkpt lat="59.9757695" lon="17.7415728">
        <ele>39.5513</ele>
        <time>2013-03-06T18:57:33Z</time>
      </trkpt>
      <trkpt lat="59.9757763" lon="17.7415463">
        <ele>39.5513</ele>
        <time>2013-03-06T18:57:34Z</time>
      </trkpt>
      <trkpt lat="59.9757824" lon="17.7415206">
        <ele>40.0321</ele>
        <time>2013-03-06T18:57:35Z</time>
      </trkpt>
      <trkpt lat="59.9757881" lon="17.7414931">
        <ele>39.5513</ele>
        <time>2013-03-06T18:57:36Z</time>
      </trkpt>
      <trkpt lat="59.9757944" lon="17.7414637">
        <ele>39.5513</ele>
        <time>2013-03-06T18:57:37Z</time>
      </trkpt>
      <trkpt lat="59.9758014" lon="17.7414388">
        <ele>39.5513</ele>
        <time>2013-03-06T18:57:38Z</time>
      </trkpt>
      <trkpt lat="59.9758073" lon="17.7414135">
        <ele>40.0321</ele>
        <time>2013-03-06T18:57:39Z</time>
      </trkpt>
      <trkpt lat="59.9758131" lon="17.7413874">
        <ele>40.0321</ele>
        <time>2013-03-06T18:57:40Z</time>
      </trkpt>
      <trkpt lat="59.9758208" lon="17.7413621">
        <ele>40.0321</ele>
        <time>2013-03-06T18:57:41Z</time>
      </trkpt>
      <trkpt lat="59.9758286" lon="17.7413378">
        <ele>40.0321</ele>
        <time>2013-03-06T18:57:42Z</time>
      </trkpt>
      <trkpt lat="59.9758357" lon="17.7413133">
        <ele>40.0321</ele>
        <time>2013-03-06T18:57:43Z</time>
      </trkpt>
      <trkpt lat="59.9758424" lon="17.7412882">
        <ele>40.0321</ele>
        <time>2013-03-06T18:57:44Z</time>
      </trkpt>
      <trkpt lat="59.9758477" lon="17.7412585">
        <ele>39.5513</ele>
        <time>2013-03-06T18:57:45Z</time>
      </trkpt>
      <trkpt lat="59.9758539" lon="17.741232">
        <ele>39.5513</ele>
        <time>2013-03-06T18:57:46Z</time>
      </trkpt>
      <trkpt lat="59.9758595" lon="17.7412026">
        <ele>39.5513</ele>
        <time>2013-03-06T18:57:47Z</time>
      </trkpt>
      <trkpt lat="59.9758653" lon="17.7411732">
        <ele>39.0707</ele>
        <time>2013-03-06T18:57:48Z</time>
      </trkpt>
      <trkpt lat="59.9758716" lon="17.7411454">
        <ele>39.0707</ele>
        <time>2013-03-06T18:57:49Z</time>
      </trkpt>
      <trkpt lat="59.9758786" lon="17.7411181">
        <ele>39.0707</ele>
        <time>2013-03-06T18:57:50Z</time>
      </trkpt>
      <trkpt lat="59.9758867" lon="17.7410901">
        <ele>39.0707</ele>
        <time>2013-03-06T18:57:51Z</time>
      </trkpt>
      <trkpt lat="59.9758938" lon="17.7410622">
        <ele>39.0707</ele>
        <time>2013-03-06T18:57:52Z</time>
      </trkpt>
      <trkpt lat="59.9759011" lon="17.7410347">
        <ele>39.0707</ele>
        <time>2013-03-06T18:57:53Z</time>
      </trkpt>
      <trkpt lat="59.9759084" lon="17.7410051">
        <ele>39.0707</ele>
        <time>2013-03-06T18:57:54Z</time>
      </trkpt>
      <trkpt lat="59.975916" lon="17.7409793">
        <ele>39.0707</ele>
        <time>2013-03-06T18:57:55Z</time>
      </trkpt>
      <trkpt lat="59.9759231" lon="17.740954">
        <ele>39.0707</ele>
        <time>2013-03-06T18:57:56Z</time>
      </trkpt>
      <trkpt lat="59.9759312" lon="17.7409274">
        <ele>39.5513</ele>
        <time>2013-03-06T18:57:57Z</time>
      </trkpt>
      <trkpt lat="59.9759389" lon="17.7408971">
        <ele>39.5513</ele>
        <time>2013-03-06T18:57:58Z</time>
      </trkpt>
      <trkpt lat="59.9759461" lon="17.7408683">
        <ele>40.0321</ele>
        <time>2013-03-06T18:57:59Z</time>
      </trkpt>
      <trkpt lat="59.9759521" lon="17.7408415">
        <ele>40.0321</ele>
        <time>2013-03-06T18:58:00Z</time>
      </trkpt>
      <trkpt lat="59.9759586" lon="17.7408152">
        <ele>40.0321</ele>
        <time>2013-03-06T18:58:01Z</time>
      </trkpt>
      <trkpt lat="59.9759649" lon="17.7407908">
        <ele>40.0321</ele>
        <time>2013-03-06T18:58:02Z</time>
      </trkpt>
      <trkpt lat="59.975971" lon="17.7407648">
        <ele>39.5513</ele>
        <time>2013-03-06T18:58:03Z</time>
      </trkpt>
      <trkpt lat="59.9759782" lon="17.7407389">
        <ele>40.0321</ele>
        <time>2013-03-06T18:58:04Z</time>
      </trkpt>
      <trkpt lat="59.9759845" lon="17.7407126">
        <ele>40.0321</ele>
        <time>2013-03-06T18:58:05Z</time>
      </trkpt>
      <trkpt lat="59.9759917" lon="17.7406875">
        <ele>40.0321</ele>
        <time>2013-03-06T18:58:06Z</time>
      </trkpt>
      <trkpt lat="59.9759996" lon="17.7406598">
        <ele>39.5513</ele>
        <time>2013-03-06T18:58:07Z</time>
      </trkpt>
      <trkpt lat="59.9760077" lon="17.7406338">
        <ele>39.5513</ele>
        <time>2013-03-06T18:58:08Z</time>
      </trkpt>
      <trkpt lat="59.9760164" lon="17.7406099">
        <ele>39.5513</ele>
        <time>2013-03-06T18:58:09Z</time>
      </trkpt>
      <trkpt lat="59.9760263" lon="17.7405867">
        <ele>39.5513</ele>
        <time>2013-03-06T18:58:10Z</time>
      </trkpt>
      <trkpt lat="59.976035" lon="17.7405617">
        <ele>39.0707</ele>
        <time>2013-03-06T18:58:11Z</time>
      </trkpt>
      <trkpt lat="59.9760434" lon="17.7405359">
        <ele>39.0707</ele>
        <time>2013-03-06T18:58:12Z</time>
      </trkpt>
      <trkpt lat="59.9760522" lon="17.7405116">
        <ele>39.0707</ele>
        <time>2013-03-06T18:58:13Z</time>
      </trkpt>
      <trkpt lat="59.9760611" lon="17.740488">
        <ele>38.5901</ele>
        <time>2013-03-06T18:58:14Z</time>
      </trkpt>
      <trkpt lat="59.9760702" lon="17.7404622">
        <ele>38.5901</ele>
        <time>2013-03-06T18:58:15Z</time>
      </trkpt>
      <trkpt lat="59.9760778" lon="17.7404334">
        <ele>38.5901</ele>
        <time>2013-03-06T18:58:16Z</time>
      </trkpt>
      <trkpt lat="59.9760849" lon="17.7404039">
        <ele>38.5901</ele>
        <time>2013-03-06T18:58:17Z</time>
      </trkpt>
      <trkpt lat="59.9760913" lon="17.7403753">
        <ele>38.5901</ele>
        <time>2013-03-06T18:58:18Z</time>
      </trkpt>
      <trkpt lat="59.9760987" lon="17.7403499">
        <ele>39.0707</ele>
        <time>2013-03-06T18:58:19Z</time>
      </trkpt>
      <trkpt lat="59.9761068" lon="17.7403261">
        <ele>38.5901</ele>
        <time>2013-03-06T18:58:20Z</time>
      </trkpt>
      <trkpt lat="59.9761161" lon="17.7403033">
        <ele>38.5901</ele>
        <time>2013-03-06T18:58:21Z</time>
      </trkpt>
      <trkpt lat="59.9761248" lon="17.7402816">
        <ele>38.5901</ele>
        <time>2013-03-06T18:58:22Z</time>
      </trkpt>
      <trkpt lat="59.9761353" lon="17.7402607">
        <ele>38.1094</ele>
        <time>2013-03-06T18:58:23Z</time>
      </trkpt>
      <trkpt lat="59.976145" lon="17.7402415">
        <ele>38.1094</ele>
        <time>2013-03-06T18:58:24Z</time>
      </trkpt>
      <trkpt lat="59.9761549" lon="17.7402219">
        <ele>38.1094</ele>
        <time>2013-03-06T18:58:25Z</time>
      </trkpt>
      <trkpt lat="59.9761638" lon="17.7402">
        <ele>37.6287</ele>
        <time>2013-03-06T18:58:26Z</time>
      </trkpt>
      <trkpt lat="59.9761716" lon="17.7401769">
        <ele>37.6287</ele>
        <time>2013-03-06T18:58:27Z</time>
      </trkpt>
      <trkpt lat="59.9761798" lon="17.7401508">
        <ele>37.6287</ele>
        <time>2013-03-06T18:58:28Z</time>
      </trkpt>
      <trkpt lat="59.9761878" lon="17.7401236">
        <ele>37.6287</ele>
        <time>2013-03-06T18:58:29Z</time>
      </trkpt>
      <trkpt lat="59.9761954" lon="17.7400967">
        <ele>37.6287</ele>
        <time>2013-03-06T18:58:30Z</time>
      </trkpt>
      <trkpt lat="59.9762036" lon="17.7400702">
        <ele>37.1481</ele>
        <time>2013-03-06T18:58:31Z</time>
      </trkpt>
      <trkpt lat="59.9762123" lon="17.7400442">
        <ele>37.1481</ele>
        <time>2013-03-06T18:58:32Z</time>
      </trkpt>
      <trkpt lat="59.976221" lon="17.7400175">
        <ele>37.1481</ele>
        <time>2013-03-06T18:58:33Z</time>
      </trkpt>
      <trkpt lat="59.9762309" lon="17.7399944">
        <ele>36.6675</ele>
        <time>2013-03-06T18:58:34Z</time>
      </trkpt>
      <trkpt lat="59.9762414" lon="17.7399707">
        <ele>36.6675</ele>
        <time>2013-03-06T18:58:35Z</time>
      </trkpt>
      <trkpt lat="59.9762511" lon="17.7399463">
        <ele>36.6675</ele>
        <time>2013-03-06T18:58:36Z</time>
      </trkpt>
      <trkpt lat="59.9762605" lon="17.739921">
        <ele>36.6675</ele>
        <time>2013-03-06T18:58:37Z</time>
      </trkpt>
      <trkpt lat="59.9762692" lon="17.7398959">
        <ele>36.6675</ele>
        <time>2013-03-06T18:58:38Z</time>
      </trkpt>
      <trkpt lat="59.9762782" lon="17.7398706">
        <ele>36.6675</ele>
        <time>2013-03-06T18:58:39Z</time>
      </trkpt>
      <trkpt lat="59.9762881" lon="17.7398468">
        <ele>36.6675</ele>
        <time>2013-03-06T18:58:40Z</time>
      </trkpt>
      <trkpt lat="59.9762973" lon="17.7398248">
        <ele>37.1481</ele>
        <time>2013-03-06T18:58:41Z</time>
      </trkpt>
      <trkpt lat="59.9763062" lon="17.7398019">
        <ele>37.1481</ele>
        <time>2013-03-06T18:58:42Z</time>
      </trkpt>
      <trkpt lat="59.9763163" lon="17.739778">
        <ele>37.1481</ele>
        <time>2013-03-06T18:58:43Z</time>
      </trkpt>
      <trkpt lat="59.9763252" lon="17.739754">
        <ele>37.1481</ele>
        <time>2013-03-06T18:58:44Z</time>
      </trkpt>
      <trkpt lat="59.976335" lon="17.7397309">
        <ele>36.6675</ele>
        <time>2013-03-06T18:58:45Z</time>
      </trkpt>
      <trkpt lat="59.9763465" lon="17.7397081">
        <ele>36.6675</ele>
        <time>2013-03-06T18:58:46Z</time>
      </trkpt>
      <trkpt lat="59.9763574" lon="17.7396863">
        <ele>36.1868</ele>
        <time>2013-03-06T18:58:47Z</time>
      </trkpt>
      <trkpt lat="59.9763689" lon="17.7396646">
        <ele>36.1868</ele>
        <time>2013-03-06T18:58:48Z</time>
      </trkpt>
      <trkpt lat="59.9763801" lon="17.7396434">
        <ele>35.7061</ele>
        <time>2013-03-06T18:58:49Z</time>
      </trkpt>
      <trkpt lat="59.9763912" lon="17.7396236">
        <ele>35.7061</ele>
        <time>2013-03-06T18:58:50Z</time>
      </trkpt>
      <trkpt lat="59.9764029" lon="17.7396051">
        <ele>35.2255</ele>
        <time>2013-03-06T18:58:51Z</time>
      </trkpt>
      <trkpt lat="59.9764152" lon="17.7395878">
        <ele>35.2255</ele>
        <time>2013-03-06T18:58:52Z</time>
      </trkpt>
      <trkpt lat="59.9764268" lon="17.7395698">
        <ele>34.7449</ele>
        <time>2013-03-06T18:58:53Z</time>
      </trkpt>
      <trkpt lat="59.9764392" lon="17.739551">
        <ele>34.7449</ele>
        <time>2013-03-06T18:58:54Z</time>
      </trkpt>
      <trkpt lat="59.9764518" lon="17.7395294">
        <ele>34.2642</ele>
        <time>2013-03-06T18:58:55Z</time>
      </trkpt>
      <trkpt lat="59.9764646" lon="17.7395095">
        <ele>34.2642</ele>
        <time>2013-03-06T18:58:56Z</time>
      </trkpt>
      <trkpt lat="59.9764781" lon="17.7394947">
        <ele>33.7834</ele>
        <time>2013-03-06T18:58:57Z</time>
      </trkpt>
      <trkpt lat="59.9764921" lon="17.7394839">
        <ele>33.7834</ele>
        <time>2013-03-06T18:58:58Z</time>
      </trkpt>
      <trkpt lat="59.9765061" lon="17.7394714">
        <ele>33.7834</ele>
        <time>2013-03-06T18:58:59Z</time>
      </trkpt>
      <trkpt lat="59.9765201" lon="17.739458">
        <ele>33.3029</ele>
        <time>2013-03-06T18:59:00Z</time>
      </trkpt>
      <trkpt lat="59.9765345" lon="17.739445">
        <ele>33.3029</ele>
        <time>2013-03-06T18:59:01Z</time>
      </trkpt>
      <trkpt lat="59.9765491" lon="17.7394324">
        <ele>33.3029</ele>
        <time>2013-03-06T18:59:02Z</time>
      </trkpt>
      <trkpt lat="59.9765646" lon="17.7394217">
        <ele>33.3029</ele>
        <time>2013-03-06T18:59:03Z</time>
      </trkpt>
      <trkpt lat="59.9765808" lon="17.7394149">
        <ele>33.7834</ele>
        <time>2013-03-06T18:59:04Z</time>
      </trkpt>
      <trkpt lat="59.9765951" lon="17.7394042">
        <ele>33.3029</ele>
        <time>2013-03-06T18:59:05Z</time>
      </trkpt>
      <trkpt lat="59.9766077" lon="17.7393859">
        <ele>33.3029</ele>
        <time>2013-03-06T18:59:06Z</time>
      </trkpt>
      <trkpt lat="59.9766229" lon="17.7393766">
        <ele>33.3029</ele>
        <time>2013-03-06T18:59:07Z</time>
      </trkpt>
      <trkpt lat="59.9766372" lon="17.7393673">
        <ele>33.3029</ele>
        <time>2013-03-06T18:59:08Z</time>
      </trkpt>
      <trkpt lat="59.9766517" lon="17.7393572">
        <ele>33.3029</ele>
        <time>2013-03-06T18:59:09Z</time>
      </trkpt>
      <trkpt lat="59.976668" lon="17.7393542">
        <ele>33.7834</ele>
        <time>2013-03-06T18:59:10Z</time>
      </trkpt>
      <trkpt lat="59.9766852" lon="17.739356">
        <ele>33.7834</ele>
        <time>2013-03-06T18:59:11Z</time>
      </trkpt>
      <trkpt lat="59.9767017" lon="17.7393522">
        <ele>33.7834</ele>
        <time>2013-03-06T18:59:12Z</time>
      </trkpt>
      <trkpt lat="59.9767169" lon="17.7393477">
        <ele>33.7834</ele>
        <time>2013-03-06T18:59:13Z</time>
      </trkpt>
      <trkpt lat="59.9767325" lon="17.7393437">
        <ele>33.7834</ele>
        <time>2013-03-06T18:59:14Z</time>
      </trkpt>
      <trkpt lat="59.9767474" lon="17.7393373">
        <ele>34.2642</ele>
        <time>2013-03-06T18:59:15Z</time>
      </trkpt>
      <trkpt lat="59.9767613" lon="17.7393304">
        <ele>34.2642</ele>
        <time>2013-03-06T18:59:16Z</time>
      </trkpt>
      <trkpt lat="59.9767754" lon="17.7393257">
        <ele>34.2642</ele>
        <time>2013-03-06T18:59:17Z</time>
      </trkpt>
      <trkpt lat="59.9767887" lon="17.7393182">
        <ele>34.2642</ele>
        <time>2013-03-06T18:59:18Z</time>
      </trkpt>
      <trkpt lat="59.9768034" lon="17.7393104">
        <ele>34.2642</ele>
        <time>2013-03-06T18:59:19Z</time>
      </trkpt>
      <trkpt lat="59.9768179" lon="17.739303">
        <ele>34.2642</ele>
        <time>2013-03-06T18:59:20Z</time>
      </trkpt>
      <trkpt lat="59.9768322" lon="17.7392956">
        <ele>34.2642</ele>
        <time>2013-03-06T18:59:21Z</time>
      </trkpt>
      <trkpt lat="59.9768469" lon="17.7392885">
        <ele>34.7449</ele>
        <time>2013-03-06T18:59:22Z</time>
      </trkpt>
      <trkpt lat="59.9768619" lon="17.7392839">
        <ele>34.7449</ele>
        <time>2013-03-06T18:59:23Z</time>
      </trkpt>
      <trkpt lat="59.976877" lon="17.7392833">
        <ele>34.7449</ele>
        <time>2013-03-06T18:59:24Z</time>
      </trkpt>
      <trkpt lat="59.9768925" lon="17.7392813">
        <ele>34.7449</ele>
        <time>2013-03-06T18:59:25Z</time>
      </trkpt>
      <trkpt lat="59.9769066" lon="17.7392764">
        <ele>34.7449</ele>
        <time>2013-03-06T18:59:26Z</time>
      </trkpt>
      <trkpt lat="59.976921" lon="17.739271">
        <ele>34.2642</ele>
        <time>2013-03-06T18:59:27Z</time>
      </trkpt>
      <trkpt lat="59.9769349" lon="17.7392655">
        <ele>34.2642</ele>
        <time>2013-03-06T18:59:28Z</time>
      </trkpt>
      <trkpt lat="59.9769491" lon="17.7392595">
        <ele>33.7834</ele>
        <time>2013-03-06T18:59:29Z</time>
      </trkpt>
      <trkpt lat="59.9769643" lon="17.7392541">
        <ele>33.7834</ele>
        <time>2013-03-06T18:59:30Z</time>
      </trkpt>
      <trkpt lat="59.9769781" lon="17.7392497">
        <ele>33.7834</ele>
        <time>2013-03-06T18:59:31Z</time>
      </trkpt>
      <trkpt lat="59.9769921" lon="17.7392458">
        <ele>33.7834</ele>
        <time>2013-03-06T18:59:32Z</time>
      </trkpt>
      <trkpt lat="59.9770054" lon="17.7392407">
        <ele>33.3029</ele>
        <time>2013-03-06T18:59:33Z</time>
      </trkpt>
      <trkpt lat="59.9770187" lon="17.739235">
        <ele>33.3029</ele>
        <time>2013-03-06T18:59:34Z</time>
      </trkpt>
      <trkpt lat="59.9770334" lon="17.7392309">
        <ele>32.8223</ele>
        <time>2013-03-06T18:59:35Z</time>
      </trkpt>
      <trkpt lat="59.977048" lon="17.7392239">
        <ele>32.8223</ele>
        <time>2013-03-06T18:59:36Z</time>
      </trkpt>
      <trkpt lat="59.9770622" lon="17.7392143">
        <ele>32.3416</ele>
        <time>2013-03-06T18:59:37Z</time>
      </trkpt>
      <trkpt lat="59.9770759" lon="17.739204">
        <ele>32.3416</ele>
        <time>2013-03-06T18:59:38Z</time>
      </trkpt>
      <trkpt lat="59.9770897" lon="17.7391915">
        <ele>31.8607</ele>
        <time>2013-03-06T18:59:39Z</time>
      </trkpt>
      <trkpt lat="59.9771039" lon="17.7391807">
        <ele>31.8607</ele>
        <time>2013-03-06T18:59:40Z</time>
      </trkpt>
      <trkpt lat="59.9771187" lon="17.7391744">
        <ele>31.8607</ele>
        <time>2013-03-06T18:59:41Z</time>
      </trkpt>
      <trkpt lat="59.9771325" lon="17.7391684">
        <ele>31.8607</ele>
        <time>2013-03-06T18:59:42Z</time>
      </trkpt>
      <trkpt lat="59.9771474" lon="17.7391633">
        <ele>31.8607</ele>
        <time>2013-03-06T18:59:43Z</time>
      </trkpt>
      <trkpt lat="59.9771624" lon="17.7391594">
        <ele>31.8607</ele>
        <time>2013-03-06T18:59:44Z</time>
      </trkpt>
      <trkpt lat="59.9771763" lon="17.7391495">
        <ele>31.3801</ele>
        <time>2013-03-06T18:59:45Z</time>
      </trkpt>
      <trkpt lat="59.97719" lon="17.7391397">
        <ele>31.3801</ele>
        <time>2013-03-06T18:59:46Z</time>
      </trkpt>
      <trkpt lat="59.9772038" lon="17.7391325">
        <ele>31.3801</ele>
        <time>2013-03-06T18:59:47Z</time>
      </trkpt>
      <trkpt lat="59.9772178" lon="17.7391255">
        <ele>30.8995</ele>
        <time>2013-03-06T18:59:48Z</time>
      </trkpt>
      <trkpt lat="59.9772327" lon="17.7391134">
        <ele>31.3801</ele>
        <time>2013-03-06T18:59:49Z</time>
      </trkpt>
      <trkpt lat="59.9772479" lon="17.7391031">
        <ele>31.8607</ele>
        <time>2013-03-06T18:59:50Z</time>
      </trkpt>
      <trkpt lat="59.9772642" lon="17.7390931">
        <ele>32.8223</ele>
        <time>2013-03-06T18:59:51Z</time>
      </trkpt>
      <trkpt lat="59.97728" lon="17.7390849">
        <ele>32.8223</ele>
        <time>2013-03-06T18:59:52Z</time>
      </trkpt>
      <trkpt lat="59.9772961" lon="17.7390807">
        <ele>33.3029</ele>
        <time>2013-03-06T18:59:53Z</time>
      </trkpt>
      <trkpt lat="59.9773126" lon="17.7390775">
        <ele>33.7834</ele>
        <time>2013-03-06T18:59:54Z</time>
      </trkpt>
      <trkpt lat="59.9773293" lon="17.7390759">
        <ele>33.7834</ele>
        <time>2013-03-06T18:59:55Z</time>
      </trkpt>
      <trkpt lat="59.9773452" lon="17.7390741">
        <ele>34.2642</ele>
        <time>2013-03-06T18:59:56Z</time>
      </trkpt>
      <trkpt lat="59.9773583" lon="17.7390673">
        <ele>34.2642</ele>
        <time>2013-03-06T18:59:57Z</time>
      </trkpt>
      <trkpt lat="59.9773722" lon="17.7390604">
        <ele>34.7449</ele>
        <time>2013-03-06T18:59:58Z</time>
      </trkpt>
      <trkpt lat="59.9773871" lon="17.7390544">
        <ele>34.7449</ele>
        <time>2013-03-06T18:59:59Z</time>
      </trkpt>
      <trkpt lat="59.9774007" lon="17.7390465">
        <ele>34.7449</ele>
        <time>2013-03-06T19:00:00Z</time>
      </trkpt>
      <trkpt lat="59.9774152" lon="17.7390397">
        <ele>35.2255</ele>
        <time>2013-03-06T19:00:01Z</time>
      </trkpt>
      <trkpt lat="59.9774301" lon="17.7390363">
        <ele>35.2255</ele>
        <time>2013-03-06T19:00:02Z</time>
      </trkpt>
      <trkpt lat="59.9774437" lon="17.7390329">
        <ele>35.2255</ele>
        <time>2013-03-06T19:00:03Z</time>
      </trkpt>
      <trkpt lat="59.977457" lon="17.7390268">
        <ele>35.2255</ele>
        <time>2013-03-06T19:00:04Z</time>
      </trkpt>
      <trkpt lat="59.9774704" lon="17.7390176">
        <ele>35.2255</ele>
        <time>2013-03-06T19:00:05Z</time>
      </trkpt>
      <trkpt lat="59.9774862" lon="17.7390136">
        <ele>35.7061</ele>
        <time>2013-03-06T19:00:06Z</time>
      </trkpt>
      <trkpt lat="59.9775022" lon="17.7390083">
        <ele>35.7061</ele>
        <time>2013-03-06T19:00:07Z</time>
      </trkpt>
      <trkpt lat="59.9775177" lon="17.7390024">
        <ele>36.1868</ele>
        <time>2013-03-06T19:00:08Z</time>
      </trkpt>
      <trkpt lat="59.9775322" lon="17.7389973">
        <ele>36.1868</ele>
        <time>2013-03-06T19:00:09Z</time>
      </trkpt>
      <trkpt lat="59.9775481" lon="17.7389954">
        <ele>36.1868</ele>
        <time>2013-03-06T19:00:10Z</time>
      </trkpt>
      <trkpt lat="59.9775644" lon="17.7389926">
        <ele>36.6675</ele>
        <time>2013-03-06T19:00:11Z</time>
      </trkpt>
      <trkpt lat="59.9775805" lon="17.7389902">
        <ele>36.6675</ele>
        <time>2013-03-06T19:00:12Z</time>
      </trkpt>
      <trkpt lat="59.9775968" lon="17.7389891">
        <ele>37.1481</ele>
        <time>2013-03-06T19:00:13Z</time>
      </trkpt>
      <trkpt lat="59.9776134" lon="17.7389889">
        <ele>37.6287</ele>
        <time>2013-03-06T19:00:14Z</time>
      </trkpt>
      <trkpt lat="59.9776295" lon="17.7389884">
        <ele>37.6287</ele>
        <time>2013-03-06T19:00:15Z</time>
      </trkpt>
      <trkpt lat="59.9776458" lon="17.7389869">
        <ele>38.1094</ele>
        <time>2013-03-06T19:00:16Z</time>
      </trkpt>
      <trkpt lat="59.9776587" lon="17.7389925">
        <ele>38.5901</ele>
        <time>2013-03-06T19:00:17Z</time>
      </trkpt>
      <trkpt lat="59.9776705" lon="17.7389996">
        <ele>38.5901</ele>
        <time>2013-03-06T19:00:18Z</time>
      </trkpt>
      <trkpt lat="59.977686" lon="17.7390024">
        <ele>38.1094</ele>
        <time>2013-03-06T19:00:19Z</time>
      </trkpt>
      <trkpt lat="59.9777048" lon="17.7389987">
        <ele>38.5901</ele>
        <time>2013-03-06T19:00:20Z</time>
      </trkpt>
      <trkpt lat="59.9777211" lon="17.7389951">
        <ele>38.5901</ele>
        <time>2013-03-06T19:00:21Z</time>
      </trkpt>
      <trkpt lat="59.977737" lon="17.7389917">
        <ele>39.0707</ele>
        <time>2013-03-06T19:00:22Z</time>
      </trkpt>
      <trkpt lat="59.9777519" lon="17.7389858">
        <ele>39.0707</ele>
        <time>2013-03-06T19:00:23Z</time>
      </trkpt>
      <trkpt lat="59.9777654" lon="17.7389797">
        <ele>38.5901</ele>
        <time>2013-03-06T19:00:24Z</time>
      </trkpt>
      <trkpt lat="59.9777788" lon="17.7389725">
        <ele>38.5901</ele>
        <time>2013-03-06T19:00:25Z</time>
      </trkpt>
      <trkpt lat="59.9777928" lon="17.738967">
        <ele>38.5901</ele>
        <time>2013-03-06T19:00:26Z</time>
      </trkpt>
      <trkpt lat="59.9778063" lon="17.7389664">
        <ele>38.1094</ele>
        <time>2013-03-06T19:00:27Z</time>
      </trkpt>
      <trkpt lat="59.9778194" lon="17.7389731">
        <ele>38.1094</ele>
        <time>2013-03-06T19:00:28Z</time>
      </trkpt>
      <trkpt lat="59.977832" lon="17.7389808">
        <ele>38.1094</ele>
        <time>2013-03-06T19:00:29Z</time>
      </trkpt>
      <trkpt lat="59.9778442" lon="17.7389891">
        <ele>38.1094</ele>
        <time>2013-03-06T19:00:30Z</time>
      </trkpt>
      <trkpt lat="59.9778556" lon="17.7389973">
        <ele>38.1094</ele>
        <time>2013-03-06T19:00:31Z</time>
      </trkpt>
      <trkpt lat="59.9778674" lon="17.7390036">
        <ele>37.6287</ele>
        <time>2013-03-06T19:00:32Z</time>
      </trkpt>
      <trkpt lat="59.9778792" lon="17.7390097">
        <ele>37.6287</ele>
        <time>2013-03-06T19:00:33Z</time>
      </trkpt>
      <trkpt lat="59.9778903" lon="17.7390161">
        <ele>37.6287</ele>
        <time>2013-03-06T19:00:34Z</time>
      </trkpt>
      <trkpt lat="59.9779041" lon="17.739026">
        <ele>37.6287</ele>
        <time>2013-03-06T19:00:35Z</time>
      </trkpt>
      <trkpt lat="59.977916" lon="17.7390408">
        <ele>36.6675</ele>
        <time>2013-03-06T19:00:36Z</time>
      </trkpt>
      <trkpt lat="59.9779265" lon="17.7390588">
        <ele>36.1868</ele>
        <time>2013-03-06T19:00:37Z</time>
      </trkpt>
      <trkpt lat="59.9779387" lon="17.7390735">
        <ele>35.7061</ele>
        <time>2013-03-06T19:00:38Z</time>
      </trkpt>
      <trkpt lat="59.9779546" lon="17.7390848">
        <ele>35.7061</ele>
        <time>2013-03-06T19:00:39Z</time>
      </trkpt>
      <trkpt lat="59.9779698" lon="17.7390946">
        <ele>35.2255</ele>
        <time>2013-03-06T19:00:40Z</time>
      </trkpt>
      <trkpt lat="59.9779862" lon="17.7390972">
        <ele>35.7061</ele>
        <time>2013-03-06T19:00:41Z</time>
      </trkpt>
      <trkpt lat="59.9780009" lon="17.7390979">
        <ele>35.7061</ele>
        <time>2013-03-06T19:00:42Z</time>
      </trkpt>
      <trkpt lat="59.978013" lon="17.7391">
        <ele>35.2255</ele>
        <time>2013-03-06T19:00:43Z</time>
      </trkpt>
      <trkpt lat="59.9780238" lon="17.7391041">
        <ele>35.7061</ele>
        <time>2013-03-06T19:00:44Z</time>
      </trkpt>
      <trkpt lat="59.9780399" lon="17.7391089">
        <ele>37.1481</ele>
        <time>2013-03-06T19:00:45Z</time>
      </trkpt>
      <trkpt lat="59.9780523" lon="17.7391171">
        <ele>37.6287</ele>
        <time>2013-03-06T19:00:46Z</time>
      </trkpt>
      <trkpt lat="59.9780667" lon="17.73913">
        <ele>37.6287</ele>
        <time>2013-03-06T19:00:47Z</time>
      </trkpt>
      <trkpt lat="59.9780781" lon="17.7391362">
        <ele>38.1094</ele>
        <time>2013-03-06T19:00:48Z</time>
      </trkpt>
      <trkpt lat="59.9780916" lon="17.7391393">
        <ele>38.1094</ele>
        <time>2013-03-06T19:00:49Z</time>
      </trkpt>
      <trkpt lat="59.9781082" lon="17.739145">
        <ele>37.6287</ele>
        <time>2013-03-06T19:00:50Z</time>
      </trkpt>
      <trkpt lat="59.9781242" lon="17.739156">
        <ele>37.1481</ele>
        <time>2013-03-06T19:00:51Z</time>
      </trkpt>
      <trkpt lat="59.9781373" lon="17.7391647">
        <ele>37.1481</ele>
        <time>2013-03-06T19:00:52Z</time>
      </trkpt>
      <trkpt lat="59.9781513" lon="17.7391718">
        <ele>37.6287</ele>
        <time>2013-03-06T19:00:53Z</time>
      </trkpt>
      <trkpt lat="59.9781653" lon="17.739173">
        <ele>37.1481</ele>
        <time>2013-03-06T19:00:54Z</time>
      </trkpt>
      <trkpt lat="59.9781798" lon="17.7391776">
        <ele>37.1481</ele>
        <time>2013-03-06T19:00:55Z</time>
      </trkpt>
      <trkpt lat="59.9781938" lon="17.7391839">
        <ele>37.6287</ele>
        <time>2013-03-06T19:00:56Z</time>
      </trkpt>
      <trkpt lat="59.9782057" lon="17.7391842">
        <ele>37.6287</ele>
        <time>2013-03-06T19:00:57Z</time>
      </trkpt>
      <trkpt lat="59.9782181" lon="17.7391844">
        <ele>37.6287</ele>
        <time>2013-03-06T19:00:58Z</time>
      </trkpt>
      <trkpt lat="59.9782321" lon="17.7391834">
        <ele>37.6287</ele>
        <time>2013-03-06T19:00:59Z</time>
      </trkpt>
      <trkpt lat="59.9782475" lon="17.7391865">
        <ele>37.1481</ele>
        <time>2013-03-06T19:01:00Z</time>
      </trkpt>
      <trkpt lat="59.9782642" lon="17.7391987">
        <ele>37.6287</ele>
        <time>2013-03-06T19:01:01Z</time>
      </trkpt>
      <trkpt lat="59.9782791" lon="17.739214">
        <ele>38.5901</ele>
        <time>2013-03-06T19:01:02Z</time>
      </trkpt>
      <trkpt lat="59.9782906" lon="17.7392253">
        <ele>39.0707</ele>
        <time>2013-03-06T19:01:03Z</time>
      </trkpt>
      <trkpt lat="59.9783035" lon="17.7392366">
        <ele>38.5901</ele>
        <time>2013-03-06T19:01:04Z</time>
      </trkpt>
      <trkpt lat="59.9783179" lon="17.7392429">
        <ele>38.5901</ele>
        <time>2013-03-06T19:01:05Z</time>
      </trkpt>
      <trkpt lat="59.9783331" lon="17.7392462">
        <ele>39.0707</ele>
        <time>2013-03-06T19:01:06Z</time>
      </trkpt>
      <trkpt lat="59.9783476" lon="17.7392523">
        <ele>38.5901</ele>
        <time>2013-03-06T19:01:07Z</time>
      </trkpt>
      <trkpt lat="59.9783632" lon="17.739259">
        <ele>38.5901</ele>
        <time>2013-03-06T19:01:08Z</time>
      </trkpt>
      <trkpt lat="59.9783766" lon="17.7392595">
        <ele>38.1094</ele>
        <time>2013-03-06T19:01:09Z</time>
      </trkpt>
      <trkpt lat="59.9783914" lon="17.7392631">
        <ele>38.1094</ele>
        <time>2013-03-06T19:01:10Z</time>
      </trkpt>
      <trkpt lat="59.9784073" lon="17.7392683">
        <ele>37.6287</ele>
        <time>2013-03-06T19:01:11Z</time>
      </trkpt>
      <trkpt lat="59.9784226" lon="17.7392709">
        <ele>37.6287</ele>
        <time>2013-03-06T19:01:12Z</time>
      </trkpt>
      <trkpt lat="59.9784379" lon="17.7392713">
        <ele>37.1481</ele>
        <time>2013-03-06T19:01:13Z</time>
      </trkpt>
      <trkpt lat="59.9784528" lon="17.739271">
        <ele>37.1481</ele>
        <time>2013-03-06T19:01:14Z</time>
      </trkpt>
      <trkpt lat="59.9784673" lon="17.7392698">
        <ele>36.6675</ele>
        <time>2013-03-06T19:01:15Z</time>
      </trkpt>
      <trkpt lat="59.9784831" lon="17.7392709">
        <ele>36.6675</ele>
        <time>2013-03-06T19:01:16Z</time>
      </trkpt>
      <trkpt lat="59.9784971" lon="17.7392721">
        <ele>36.1868</ele>
        <time>2013-03-06T19:01:17Z</time>
      </trkpt>
      <trkpt lat="59.9785108" lon="17.7392738">
        <ele>36.1868</ele>
        <time>2013-03-06T19:01:18Z</time>
      </trkpt>
      <trkpt lat="59.9785238" lon="17.7392769">
        <ele>35.7061</ele>
        <time>2013-03-06T19:01:19Z</time>
      </trkpt>
      <trkpt lat="59.9785384" lon="17.7392803">
        <ele>35.2255</ele>
        <time>2013-03-06T19:01:20Z</time>
      </trkpt>
      <trkpt lat="59.978551" lon="17.739285">
        <ele>34.7449</ele>
        <time>2013-03-06T19:01:21Z</time>
      </trkpt>
      <trkpt lat="59.9785634" lon="17.7392849">
        <ele>34.2642</ele>
        <time>2013-03-06T19:01:22Z</time>
      </trkpt>
      <trkpt lat="59.9785767" lon="17.7392857">
        <ele>33.3029</ele>
        <time>2013-03-06T19:01:23Z</time>
      </trkpt>
      <trkpt lat="59.9785936" lon="17.7392878">
        <ele>33.3029</ele>
        <time>2013-03-06T19:01:24Z</time>
      </trkpt>
      <trkpt lat="59.9786098" lon="17.7392894">
        <ele>32.8223</ele>
        <time>2013-03-06T19:01:25Z</time>
      </trkpt>
      <trkpt lat="59.9786258" lon="17.7392928">
        <ele>32.8223</ele>
        <time>2013-03-06T19:01:26Z</time>
      </trkpt>
      <trkpt lat="59.9786417" lon="17.7392982">
        <ele>32.3416</ele>
        <time>2013-03-06T19:01:27Z</time>
      </trkpt>
      <trkpt lat="59.9786569" lon="17.7393019">
        <ele>31.8607</ele>
        <time>2013-03-06T19:01:28Z</time>
      </trkpt>
      <trkpt lat="59.9786696" lon="17.7393077">
        <ele>31.3801</ele>
        <time>2013-03-06T19:01:29Z</time>
      </trkpt>
      <trkpt lat="59.9786817" lon="17.7393106">
        <ele>31.3801</ele>
        <time>2013-03-06T19:01:30Z</time>
      </trkpt>
      <trkpt lat="59.9786956" lon="17.7393087">
        <ele>30.8995</ele>
        <time>2013-03-06T19:01:31Z</time>
      </trkpt>
      <trkpt lat="59.9787071" lon="17.7393102">
        <ele>30.4188</ele>
        <time>2013-03-06T19:01:32Z</time>
      </trkpt>
      <trkpt lat="59.9787211" lon="17.739307">
        <ele>30.4188</ele>
        <time>2013-03-06T19:01:33Z</time>
      </trkpt>
      <trkpt lat="59.9787351" lon="17.7393056">
        <ele>29.9381</ele>
        <time>2013-03-06T19:01:34Z</time>
      </trkpt>
      <trkpt lat="59.9787475" lon="17.7393031">
        <ele>29.4575</ele>
        <time>2013-03-06T19:01:35Z</time>
      </trkpt>
      <trkpt lat="59.9787616" lon="17.7393018">
        <ele>28.9769</ele>
        <time>2013-03-06T19:01:36Z</time>
      </trkpt>
      <trkpt lat="59.9787763" lon="17.7392972">
        <ele>28.9769</ele>
        <time>2013-03-06T19:01:37Z</time>
      </trkpt>
      <trkpt lat="59.97879" lon="17.739294">
        <ele>28.4962</ele>
        <time>2013-03-06T19:01:38Z</time>
      </trkpt>
      <trkpt lat="59.9788041" lon="17.7392912">
        <ele>28.4962</ele>
        <time>2013-03-06T19:01:39Z</time>
      </trkpt>
      <trkpt lat="59.9788198" lon="17.739287">
        <ele>28.4962</ele>
        <time>2013-03-06T19:01:40Z</time>
      </trkpt>
      <trkpt lat="59.9788356" lon="17.7392833">
        <ele>28.4962</ele>
        <time>2013-03-06T19:01:41Z</time>
      </trkpt>
      <trkpt lat="59.9788507" lon="17.7392782">
        <ele>28.4962</ele>
        <time>2013-03-06T19:01:42Z</time>
      </trkpt>
      <trkpt lat="59.9788656" lon="17.7392723">
        <ele>28.4962</ele>
        <time>2013-03-06T19:01:43Z</time>
      </trkpt>
      <trkpt lat="59.9788802" lon="17.7392668">
        <ele>28.4962</ele>
        <time>2013-03-06T19:01:44Z</time>
      </trkpt>
      <trkpt lat="59.9788961" lon="17.7392631">
        <ele>28.4962</ele>
        <time>2013-03-06T19:01:45Z</time>
      </trkpt>
      <trkpt lat="59.9789123" lon="17.7392564">
        <ele>28.9769</ele>
        <time>2013-03-06T19:01:46Z</time>
      </trkpt>
      <trkpt lat="59.9789272" lon="17.7392505">
        <ele>28.9769</ele>
        <time>2013-03-06T19:01:47Z</time>
      </trkpt>
      <trkpt lat="59.9789424" lon="17.7392438">
        <ele>28.9769</ele>
        <time>2013-03-06T19:01:48Z</time>
      </trkpt>
      <trkpt lat="59.9789581" lon="17.739237">
        <ele>28.9769</ele>
        <time>2013-03-06T19:01:49Z</time>
      </trkpt>
      <trkpt lat="59.9789728" lon="17.7392306">
        <ele>28.9769</ele>
        <time>2013-03-06T19:01:50Z</time>
      </trkpt>
      <trkpt lat="59.9789856" lon="17.7392222">
        <ele>28.9769</ele>
        <time>2013-03-06T19:01:51Z</time>
      </trkpt>
      <trkpt lat="59.9789997" lon="17.7392155">
        <ele>28.9769</ele>
        <time>2013-03-06T19:01:52Z</time>
      </trkpt>
      <trkpt lat="59.979013" lon="17.7392133">
        <ele>29.4575</ele>
        <time>2013-03-06T19:01:53Z</time>
      </trkpt>
      <trkpt lat="59.9790267" lon="17.7391974">
        <ele>29.9381</ele>
        <time>2013-03-06T19:01:54Z</time>
      </trkpt>
      <trkpt lat="59.9790392" lon="17.7391811">
        <ele>31.3801</ele>
        <time>2013-03-06T19:01:55Z</time>
      </trkpt>
      <trkpt lat="59.9790558" lon="17.7391694">
        <ele>31.3801</ele>
        <time>2013-03-06T19:01:56Z</time>
      </trkpt>
      <trkpt lat="59.979074" lon="17.7391557">
        <ele>31.3801</ele>
        <time>2013-03-06T19:01:57Z</time>
      </trkpt>
      <trkpt lat="59.9790959" lon="17.739157">
        <ele>31.8607</ele>
        <time>2013-03-06T19:01:58Z</time>
      </trkpt>
      <trkpt lat="59.9791184" lon="17.7391579">
        <ele>31.8607</ele>
        <time>2013-03-06T19:01:59Z</time>
      </trkpt>
      <trkpt lat="59.9791394" lon="17.7391543">
        <ele>32.3416</ele>
        <time>2013-03-06T19:02:00Z</time>
      </trkpt>
      <trkpt lat="59.9791567" lon="17.7391487">
        <ele>32.3416</ele>
        <time>2013-03-06T19:02:01Z</time>
      </trkpt>
      <trkpt lat="59.9791721" lon="17.7391384">
        <ele>32.3416</ele>
        <time>2013-03-06T19:02:02Z</time>
      </trkpt>
      <trkpt lat="59.9791876" lon="17.7391316">
        <ele>32.3416</ele>
        <time>2013-03-06T19:02:03Z</time>
      </trkpt>
      <trkpt lat="59.9792034" lon="17.7391283">
        <ele>32.3416</ele>
        <time>2013-03-06T19:02:04Z</time>
      </trkpt>
      <trkpt lat="59.97922" lon="17.7391233">
        <ele>32.3416</ele>
        <time>2013-03-06T19:02:05Z</time>
      </trkpt>
      <trkpt lat="59.9792355" lon="17.7391153">
        <ele>32.3416</ele>
        <time>2013-03-06T19:02:06Z</time>
      </trkpt>
      <trkpt lat="59.97925" lon="17.7391073">
        <ele>32.3416</ele>
        <time>2013-03-06T19:02:07Z</time>
      </trkpt>
      <trkpt lat="59.9792648" lon="17.7391">
        <ele>32.3416</ele>
        <time>2013-03-06T19:02:08Z</time>
      </trkpt>
      <trkpt lat="59.9792794" lon="17.7390905">
        <ele>32.3416</ele>
        <time>2013-03-06T19:02:09Z</time>
      </trkpt>
      <trkpt lat="59.9792952" lon="17.7390847">
        <ele>32.8223</ele>
        <time>2013-03-06T19:02:10Z</time>
      </trkpt>
      <trkpt lat="59.9793116" lon="17.7390814">
        <ele>32.8223</ele>
        <time>2013-03-06T19:02:11Z</time>
      </trkpt>
    </trkseg>
  </trk>
</gpx>